Observation data for Colorado City on 09/12/2017      Previous  Date  Next       Current Mesonet Observations  Soil Data  Daily Summary Page  Observations in Plain Language
KCO2 120500Z 08005KT 19/10 A3009 RMK A01 T01850103  RH  059%=      5-min Rain = 0
KCO2 120501Z 08005KT 19/10 A3009 RMK A01 T01850103  RH  059%=      5-min Rain = 0
KCO2 120502Z 09004KT 18/10 A3009 RMK A01 T01840102  RH  059%=      5-min Rain = 0
KCO2 120503Z 08004KT 19/10 A3009 RMK A01 T01850103  RH  059%=      5-min Rain = 0
KCO2 120504Z 08004KT 19/10 A3009 RMK A01 T01850102  RH  059%=      5-min Rain = 0
KCO2 120505Z 09004KT 19/10 A3009 RMK A01 T01850102  RH  058%=      5-min Rain = 0
KCO2 120506Z 09004KT 19/10 A3009 RMK A01 T01850102  RH  058%=      5-min Rain = 0
KCO2 120507Z 09004KT 19/10 A3009 RMK A01 T01870102  RH  058%=      5-min Rain = 0
KCO2 120508Z 09004KT 19/10 A3009 RMK A01 T01880102  RH  057%=      5-min Rain = 0
KCO2 120509Z 10004KT 19/10 A3009 RMK A01 T01890102  RH  057%=      5-min Rain = 0
KCO2 120510Z 09004KT 19/10 A3009 RMK A01 T01890102  RH  057%=      5-min Rain = 0
KCO2 120511Z 10004KT 19/10 A3009 RMK A01 T01900102  RH  057%=      5-min Rain = 0
KCO2 120512Z 10004KT 19/10 A3009 RMK A01 T01900101  RH  056%=      5-min Rain = 0
KCO2 120513Z 10004KT 19/10 A3009 RMK A01 T01900101  RH  056%=      5-min Rain = 0
KCO2 120514Z 10003KT 19/10 A3009 RMK A01 T01900101  RH  056%=      5-min Rain = 0
KCO2 120515Z 11003KT 19/10 A3009 RMK A01 T01900102  RH  056%=      5-min Rain = 0
KCO2 120516Z 11003KT 19/10 A3009 RMK A01 T01900102  RH  056%=      5-min Rain = 0
KCO2 120517Z 11003KT 19/10 A3009 RMK A01 T01900102  RH  057%=      5-min Rain = 0
KCO2 120518Z 11003KT 19/10 A3009 RMK A01 T01900102  RH  057%=      5-min Rain = 0
KCO2 120519Z 12002KT 19/10 A3009 RMK A01 T01890102  RH  057%=      5-min Rain = 0
KCO2 120520Z 12002KT 19/10 A3009 RMK A01 T01890102  RH  057%=      5-min Rain = 0
KCO2 120521Z 11002KT 19/10 A3009 RMK A01 T01880102  RH  057%=      5-min Rain = 0
KCO2 120522Z 12002KT 19/10 A3009 RMK A01 T01870102  RH  058%=      5-min Rain = 0
KCO2 120523Z 10001KT 19/10 A3009 RMK A01 T01860101  RH  058%=      5-min Rain = 0
KCO2 120524Z 09000KT 18/10 A3009 RMK A01 T01810100  RH  059%=      5-min Rain = 0
KCO2 120525Z 00000KT 18/10 A3009 RMK A01 T01760099  RH  061%=      5-min Rain = 0
KCO2 120526Z 00000KT 17/10 A3009 RMK A01 T01720099  RH  062%=      5-min Rain = 0
KCO2 120527Z 00000KT 17/10 A3009 RMK A01 T01690099  RH  063%=      5-min Rain = 0
KCO2 120528Z 00000KT 17/10 A3009 RMK A01 T01680100  RH  064%=      5-min Rain = 0
KCO2 120529Z 00000KT 17/10 A3009 RMK A01 T01680100  RH  064%=      5-min Rain = 0
KCO2 120530Z 00000KT 17/10 A3009 RMK A01 T01680101  RH  064%=      5-min Rain = 0
KCO2 120531Z 00000KT 17/10 A3009 RMK A01 T01690102  RH  064%=      5-min Rain = 0
KCO2 120532Z 00000KT 17/10 A3009 RMK A01 T01700101  RH  064%=      5-min Rain = 0
KCO2 120533Z 00000KT 17/10 A3008 RMK A01 T01700101  RH  064%=      5-min Rain = 0
KCO2 120534Z 00000KT 17/10 A3008 RMK A01 T01710102  RH  064%=      5-min Rain = 0
KCO2 120535Z 00000KT 17/10 A3008 RMK A01 T01720102  RH  064%=      5-min Rain = 0
KCO2 120536Z 00000KT 17/10 A3008 RMK A01 T01720102  RH  063%=      5-min Rain = 0
KCO2 120537Z 00000KT 17/10 A3008 RMK A01 T01730102  RH  063%=      5-min Rain = 0
KCO2 120538Z 09000KT 17/10 A3008 RMK A01 T01740102  RH  063%=      5-min Rain = 0
KCO2 120539Z 16001KT 18/10 A3008 RMK A01 T01750102  RH  062%=      5-min Rain = 0
KCO2 120540Z 25001KT 18/10 A3008 RMK A01 T01750102  RH  062%=      5-min Rain = 0
KCO2 120541Z 25001KT 17/10 A3008 RMK A01 T01740101  RH  062%=      5-min Rain = 0
KCO2 120542Z 25001KT 17/10 A3008 RMK A01 T01730101  RH  063%=      5-min Rain = 0
KCO2 120543Z 25001KT 17/10 A3008 RMK A01 T01720100  RH  063%=      5-min Rain = 0
KCO2 120544Z 25001KT 17/10 A3008 RMK A01 T01710100  RH  063%=      5-min Rain = 0
KCO2 120545Z 00000KT 17/10 A3008 RMK A01 T01710101  RH  063%=      5-min Rain = 0
KCO2 120546Z 00000KT 17/10 A3008 RMK A01 T01700101  RH  064%=      5-min Rain = 0
KCO2 120547Z 00000KT 17/10 A3008 RMK A01 T01690100  RH  064%=      5-min Rain = 0
KCO2 120548Z 00000KT 17/10 A3008 RMK A01 T01690100  RH  064%=      5-min Rain = 0
KCO2 120549Z 00000KT 17/10 A3008 RMK A01 T01680100  RH  064%=      5-min Rain = 0
KCO2 120550Z 00000KT 17/10 A3008 RMK A01 T01680100  RH  064%=      5-min Rain = 0
KCO2 120551Z 00000KT 17/10 A3008 RMK A01 T01690100  RH  064%=      5-min Rain = 0
KCO2 120552Z 00000KT 17/10 A3008 RMK A01 T01690100  RH  064%=      5-min Rain = 0
KCO2 120553Z 00000KT 17/10 A3008 RMK A01 T01690100  RH  064%=      5-min Rain = 0
KCO2 120554Z 00000KT 17/10 A3008 RMK A01 T01690100  RH  064%=      5-min Rain = 0
KCO2 120555Z 00000KT 17/10 A3008 RMK A01 T01690101  RH  064%=      5-min Rain = 0
KCO2 120556Z 25000KT 17/10 A3008 RMK A01 T01690100  RH  064%=      5-min Rain = 0
KCO2 120557Z 28001KT 17/10 A3008 RMK A01 T01700101  RH  064%=      5-min Rain = 0
KCO2 120558Z 28001KT 17/10 A3008 RMK A01 T01710101  RH  063%=      5-min Rain = 0
KCO2 120559Z 28001KT 17/10 A3008 RMK A01 T01720101  RH  063%=      5-min Rain = 0
KCO2 120600Z 28002KT 17/10 A3008 RMK A01 T01740102  RH  062%=      5-min Rain = 0
KCO2 120601Z 27001KT 17/10 A3008 RMK A01 T01740101  RH  062%=      5-min Rain = 0
KCO2 120602Z 27001KT 18/10 A3008 RMK A01 T01750101  RH  062%=      5-min Rain = 0
KCO2 120603Z 27001KT 18/10 A3008 RMK A01 T01760101  RH  062%=      5-min Rain = 0
KCO2 120604Z 27001KT 18/10 A3008 RMK A01 T01760101  RH  061%=      5-min Rain = 0
KCO2 120605Z 27001KT 18/10 A3008 RMK A01 T01760101  RH  061%=      5-min Rain = 0
KCO2 120606Z 27001KT 18/10 A3008 RMK A01 T01770101  RH  061%=      5-min Rain = 0
KCO2 120607Z 27001KT 18/10 A3008 RMK A01 T01770101  RH  061%=      5-min Rain = 0
KCO2 120608Z 27001KT 18/10 A3008 RMK A01 T01770101  RH  061%=      5-min Rain = 0
KCO2 120609Z 27001KT 18/10 A3008 RMK A01 T01760100  RH  061%=      5-min Rain = 0
KCO2 120610Z 27002KT 18/10 A3008 RMK A01 T01750100  RH  061%=      5-min Rain = 0
KCO2 120611Z 27002KT 18/10 A3008 RMK A01 T01750100  RH  061%=      5-min Rain = 0
KCO2 120612Z 29002KT 17/10 A3008 RMK A01 T01740100  RH  062%=      5-min Rain = 0
KCO2 120613Z 30002KT 17/10 A3008 RMK A01 T01740100  RH  062%=      5-min Rain = 0
KCO2 120614Z 30001KT 17/10 A3008 RMK A01 T01740100  RH  062%=      5-min Rain = 0
KCO2 120615Z 30001KT 17/10 A3008 RMK A01 T01740100  RH  062%=      5-min Rain = 0
KCO2 120616Z 30001KT 17/10 A3008 RMK A01 T01740100  RH  062%=      5-min Rain = 0
KCO2 120617Z 29001KT 18/10 A3008 RMK A01 T01750100  RH  061%=      5-min Rain = 0
KCO2 120618Z 29001KT 18/10 A3008 RMK A01 T01760100  RH  061%=      5-min Rain = 0
KCO2 120619Z 29001KT 18/10 A3008 RMK A01 T01770100  RH  061%=      5-min Rain = 0
KCO2 120620Z 30000KT 18/10 A3008 RMK A01 T01780100  RH  061%=      5-min Rain = 0
KCO2 120621Z 31000KT 18/10 A3008 RMK A01 T01780100  RH  060%=      5-min Rain = 0
KCO2 120622Z 32001KT 18/10 A3008 RMK A01 T01770099  RH  060%=      5-min Rain = 0
KCO2 120623Z 32001KT 17/10 A3008 RMK A01 T01740099  RH  061%=      5-min Rain = 0
KCO2 120624Z 32001KT 17/10 A3008 RMK A01 T01720099  RH  062%=      5-min Rain = 0
KCO2 120625Z 32001KT 17/10 A3008 RMK A01 T01710099  RH  062%=      5-min Rain = 0
KCO2 120626Z 32001KT 17/10 A3008 RMK A01 T01710099  RH  063%=      5-min Rain = 0
KCO2 120627Z 32001KT 17/10 A3008 RMK A01 T01700099  RH  063%=      5-min Rain = 0
KCO2 120628Z 32000KT 17/10 A3007 RMK A01 T01700099  RH  063%=      5-min Rain = 0
KCO2 120629Z 32000KT 17/10 A3007 RMK A01 T01700099  RH  063%=      5-min Rain = 0
KCO2 120630Z 00000KT 17/10 A3007 RMK A01 T01710099  RH  063%=      5-min Rain = 0
KCO2 120631Z 00000KT 17/10 A3007 RMK A01 T01700099  RH  063%=      5-min Rain = 0
KCO2 120632Z 00000KT 17/10 A3007 RMK A01 T01690099  RH  063%=      5-min Rain = 0
KCO2 120633Z 00000KT 17/10 A3007 RMK A01 T01680098  RH  063%=      5-min Rain = 0
KCO2 120634Z 00000KT 17/10 A3007 RMK A01 T01680098  RH  064%=      5-min Rain = 0
KCO2 120635Z 00000KT 17/10 A3007 RMK A01 T01670098  RH  064%=      5-min Rain = 0
KCO2 120636Z 00000KT 17/10 A3007 RMK A01 T01660098  RH  064%=      5-min Rain = 0
KCO2 120637Z 00000KT 17/10 A3007 RMK A01 T01660098  RH  064%=      5-min Rain = 0
KCO2 120638Z 00000KT 17/10 A3007 RMK A01 T01660098  RH  064%=      5-min Rain = 0
KCO2 120639Z 00000KT 17/10 A3007 RMK A01 T01660098  RH  064%=      5-min Rain = 0
KCO2 120640Z 00000KT 17/10 A3007 RMK A01 T01650098  RH  064%=      5-min Rain = 0
KCO2 120641Z 00000KT 17/10 A3007 RMK A01 T01650098  RH  064%=      5-min Rain = 0
KCO2 120642Z 00000KT 17/10 A3007 RMK A01 T01670098  RH  064%=      5-min Rain = 0
KCO2 120643Z 00000KT 17/10 A3007 RMK A01 T01680098  RH  064%=      5-min Rain = 0
KCO2 120644Z 00000KT 17/10 A3007 RMK A01 T01690098  RH  063%=      5-min Rain = 0
KCO2 120645Z 00000KT 17/10 A3007 RMK A01 T01690098  RH  063%=      5-min Rain = 0
KCO2 120646Z 00000KT 17/10 A3007 RMK A01 T01700099  RH  063%=      5-min Rain = 0
KCO2 120647Z 00000KT 17/10 A3007 RMK A01 T01700098  RH  063%=      5-min Rain = 0
KCO2 120648Z 00000KT 17/10 A3007 RMK A01 T01700098  RH  063%=      5-min Rain = 0
KCO2 120649Z 00000KT 17/10 A3007 RMK A01 T01690098  RH  063%=      5-min Rain = 0
KCO2 120650Z 00000KT 17/10 A3007 RMK A01 T01690098  RH  063%=      5-min Rain = 0
KCO2 120651Z 04001KT 17/10 A3007 RMK A01 T01690098  RH  063%=      5-min Rain = 0
KCO2 120652Z 04001KT 17/10 A3007 RMK A01 T01690098  RH  063%=      5-min Rain = 0
KCO2 120653Z 04001KT 17/10 A3007 RMK A01 T01700098  RH  063%=      5-min Rain = 0
KCO2 120654Z 04001KT 17/10 A3007 RMK A01 T01710099  RH  062%=      5-min Rain = 0
KCO2 120655Z 04001KT 17/10 A3007 RMK A01 T01720099  RH  062%=      5-min Rain = 0
KCO2 120656Z 04001KT 17/10 A3007 RMK A01 T01730099  RH  062%=      5-min Rain = 0
KCO2 120657Z 05001KT 17/10 A3007 RMK A01 T01730099  RH  062%=      5-min Rain = 0
KCO2 120658Z 06001KT 17/10 A3007 RMK A01 T01730100  RH  062%=      5-min Rain = 0
KCO2 120659Z 07001KT 17/10 A3007 RMK A01 T01730099  RH  062%=      5-min Rain = 0
KCO2 120700Z 07001KT 17/10 A3007 RMK A01 T01730099  RH  062%=      5-min Rain = 0
KCO2 120701Z 07001KT 17/10 A3007 RMK A01 T01730099  RH  062%=      5-min Rain = 0
KCO2 120702Z 07001KT 17/10 A3007 RMK A01 T01730100  RH  062%=      5-min Rain = 0
KCO2 120703Z 08001KT 17/10 A3007 RMK A01 T01730100  RH  062%=      5-min Rain = 0
KCO2 120704Z 09000KT 17/10 A3007 RMK A01 T01740100  RH  062%=      5-min Rain = 0
KCO2 120705Z 08001KT 17/10 A3007 RMK A01 T01740100  RH  062%=      5-min Rain = 0
KCO2 120706Z 08001KT 17/10 A3007 RMK A01 T01740100  RH  062%=      5-min Rain = 0
KCO2 120707Z 08001KT 18/10 A3007 RMK A01 T01750100  RH  061%=      5-min Rain = 0
KCO2 120708Z 07001KT 18/10 A3007 RMK A01 T01750100  RH  061%=      5-min Rain = 0
KCO2 120709Z 06001KT 17/10 A3007 RMK A01 T01740099  RH  062%=      5-min Rain = 0
KCO2 120710Z 07001KT 17/10 A3007 RMK A01 T01720099  RH  062%=      5-min Rain = 0
KCO2 120711Z 07001KT 17/10 A3007 RMK A01 T01710099  RH  062%=      5-min Rain = 0
KCO2 120712Z 04001KT 17/10 A3007 RMK A01 T01710099  RH  062%=      5-min Rain = 0
KCO2 120713Z 06002KT 17/10 A3007 RMK A01 T01710099  RH  063%=      5-min Rain = 0
KCO2 120714Z 06001KT 17/10 A3007 RMK A01 T01690099  RH  063%=      5-min Rain = 0
KCO2 120715Z 06002KT 17/10 A3007 RMK A01 T01690098  RH  063%=      5-min Rain = 0
KCO2 120716Z 06001KT 17/10 A3007 RMK A01 T01680098  RH  063%=      5-min Rain = 0
KCO2 120717Z 06001KT 17/10 A3007 RMK A01 T01680099  RH  064%=      5-min Rain = 0
KCO2 120718Z 05001KT 17/10 A3007 RMK A01 T01670099  RH  064%=      5-min Rain = 0
KCO2 120719Z 07001KT 17/10 A3007 RMK A01 T01680099  RH  064%=      5-min Rain = 0
KCO2 120720Z 06002KT 17/10 A3007 RMK A01 T01680099  RH  064%=      5-min Rain = 0
KCO2 120721Z 07002KT 17/10 A3007 RMK A01 T01680100  RH  064%=      5-min Rain = 0
KCO2 120722Z 07002KT 17/10 A3007 RMK A01 T01680100  RH  064%=      5-min Rain = 0
KCO2 120723Z 07002KT 17/10 A3007 RMK A01 T01680100  RH  064%=      5-min Rain = 0
KCO2 120724Z 07002KT 17/10 A3007 RMK A01 T01680100  RH  064%=      5-min Rain = 0
KCO2 120725Z 07002KT 17/10 A3007 RMK A01 T01680100  RH  064%=      5-min Rain = 0
KCO2 120726Z 07002KT 17/10 A3007 RMK A01 T01680100  RH  064%=      5-min Rain = 0
KCO2 120727Z 07002KT 17/10 A3007 RMK A01 T01680100  RH  064%=      5-min Rain = 0
KCO2 120728Z 07002KT 17/10 A3006 RMK A01 T01680100  RH  064%=      5-min Rain = 0
KCO2 120729Z 07003KT 17/10 A3006 RMK A01 T01670100  RH  064%=      5-min Rain = 0
KCO2 120730Z 07003KT 17/10 A3006 RMK A01 T01660100  RH  065%=      5-min Rain = 0
KCO2 120731Z 07002KT 16/10 A3006 RMK A01 T01640099  RH  065%=      5-min Rain = 0
KCO2 120732Z 06002KT 16/10 A3006 RMK A01 T01640100  RH  066%=      5-min Rain = 0
KCO2 120733Z 06002KT 16/10 A3006 RMK A01 T01630099  RH  066%=      5-min Rain = 0
KCO2 120734Z 07002KT 16/10 A3006 RMK A01 T01630099  RH  066%=      5-min Rain = 0
KCO2 120735Z 07003KT 16/10 A3006 RMK A01 T01630099  RH  066%=      5-min Rain = 0
KCO2 120736Z 07003KT 16/10 A3006 RMK A01 T01630099  RH  066%=      5-min Rain = 0
KCO2 120737Z 07003KT 16/10 A3006 RMK A01 T01630100  RH  066%=      5-min Rain = 0
KCO2 120738Z 07003KT 16/10 A3006 RMK A01 T01630100  RH  066%=      5-min Rain = 0
KCO2 120739Z 07003KT 16/10 A3006 RMK A01 T01640100  RH  066%=      5-min Rain = 0
KCO2 120740Z 07003KT 16/10 A3006 RMK A01 T01640100  RH  066%=      5-min Rain = 0
KCO2 120741Z 07003KT 16/10 A3006 RMK A01 T01640099  RH  066%=      5-min Rain = 0
KCO2 120742Z 07003KT 16/10 A3006 RMK A01 T01640099  RH  066%=      5-min Rain = 0
KCO2 120743Z 07003KT 16/10 A3006 RMK A01 T01640100  RH  066%=      5-min Rain = 0
KCO2 120744Z 07003KT 16/10 A3006 RMK A01 T01640100  RH  066%=      5-min Rain = 0
KCO2 120745Z 07003KT 16/10 A3006 RMK A01 T01640099  RH  065%=      5-min Rain = 0
KCO2 120746Z 07003KT 16/10 A3006 RMK A01 T01640099  RH  065%=      5-min Rain = 0
KCO2 120747Z 07003KT 16/10 A3006 RMK A01 T01640099  RH  065%=      5-min Rain = 0
KCO2 120748Z 07003KT 16/10 A3006 RMK A01 T01640100  RH  066%=      5-min Rain = 0
KCO2 120749Z 08004KT 16/10 A3006 RMK A01 T01640100  RH  066%=      5-min Rain = 0
KCO2 120750Z 08004KT 17/10 A3006 RMK A01 T01650099  RH  065%=      5-min Rain = 0
KCO2 120751Z 08004KT 17/10 A3006 RMK A01 T01650100  RH  065%=      5-min Rain = 0
KCO2 120752Z 08004KT 17/10 A3006 RMK A01 T01660100  RH  065%=      5-min Rain = 0
KCO2 120753Z 08004KT 17/10 A3006 RMK A01 T01670100  RH  065%=      5-min Rain = 0
KCO2 120754Z 08004KT 17/10 A3006 RMK A01 T01670100  RH  064%=      5-min Rain = 0
KCO2 120755Z 08004KT 17/10 A3006 RMK A01 T01680100  RH  064%=      5-min Rain = 0
KCO2 120756Z 09004KT 17/10 A3006 RMK A01 T01690100  RH  064%=      5-min Rain = 0
KCO2 120757Z 09004KT 17/10 A3006 RMK A01 T01690100  RH  063%=      5-min Rain = 0
KCO2 120758Z 09004KT 17/10 A3006 RMK A01 T01700100  RH  063%=      5-min Rain = 0
KCO2 120759Z 09004KT 17/10 A3006 RMK A01 T01700100  RH  063%=      5-min Rain = 0
KCO2 120800Z 09004KT 17/10 A3006 RMK A01 T01700100  RH  063%=      5-min Rain = 0
KCO2 120801Z 09004KT 17/10 A3006 RMK A01 T01700100  RH  063%=      5-min Rain = 0
KCO2 120802Z 09004KT 17/10 A3006 RMK A01 T01700100  RH  063%=      5-min Rain = 0
KCO2 120803Z 09004KT 17/10 A3006 RMK A01 T01700100  RH  063%=      5-min Rain = 0
KCO2 120804Z 09004KT 17/10 A3006 RMK A01 T01700100  RH  063%=      5-min Rain = 0
KCO2 120805Z 09004KT 17/10 A3006 RMK A01 T01690100  RH  064%=      5-min Rain = 0
KCO2 120806Z 09004KT 17/10 A3006 RMK A01 T01690100  RH  064%=      5-min Rain = 0
KCO2 120807Z 09004KT 17/10 A3006 RMK A01 T01700100  RH  064%=      5-min Rain = 0
KCO2 120808Z 09004KT 17/10 A3006 RMK A01 T01690100  RH  064%=      5-min Rain = 0
KCO2 120809Z 08004KT 17/10 A3006 RMK A01 T01690100  RH  064%=      5-min Rain = 0
KCO2 120810Z 09004KT 17/10 A3006 RMK A01 T01680100  RH  064%=      5-min Rain = 0
KCO2 120811Z 09004KT 17/10 A3006 RMK A01 T01680100  RH  064%=      5-min Rain = 0
KCO2 120812Z 09004KT 17/10 A3006 RMK A01 T01680100  RH  064%=      5-min Rain = 0
KCO2 120813Z 09004KT 17/10 A3006 RMK A01 T01680100  RH  064%=      5-min Rain = 0
KCO2 120814Z 09004KT 17/10 A3006 RMK A01 T01680099  RH  064%=      5-min Rain = 0
KCO2 120815Z 09004KT 17/10 A3006 RMK A01 T01690100  RH  064%=      5-min Rain = 0
KCO2 120816Z 09004KT 17/10 A3006 RMK A01 T01680100  RH  064%=      5-min Rain = 0
KCO2 120817Z 09004KT 17/10 A3006 RMK A01 T01680100  RH  064%=      5-min Rain = 0
KCO2 120818Z 09004KT 17/10 A3006 RMK A01 T01680100  RH  064%=      5-min Rain = 0
KCO2 120819Z 09004KT 17/10 A3006 RMK A01 T01690100  RH  064%=      5-min Rain = 0
KCO2 120820Z 09004KT 17/10 A3006 RMK A01 T01690099  RH  064%=      5-min Rain = 0
KCO2 120821Z 09004KT 17/10 A3006 RMK A01 T01690100  RH  064%=      5-min Rain = 0
KCO2 120822Z 09003KT 17/10 A3006 RMK A01 T01690100  RH  064%=      5-min Rain = 0
KCO2 120823Z 09003KT 17/10 A3006 RMK A01 T01690100  RH  064%=      5-min Rain = 0
KCO2 120824Z 09003KT 17/10 A3006 RMK A01 T01690100  RH  064%=      5-min Rain = 0
KCO2 120825Z 09003KT 17/10 A3005 RMK A01 T01690100  RH  064%=      5-min Rain = 0
KCO2 120826Z 09003KT 17/10 A3005 RMK A01 T01690100  RH  063%=      5-min Rain = 0
KCO2 120827Z 09003KT 17/10 A3005 RMK A01 T01690099  RH  063%=      5-min Rain = 0
KCO2 120828Z 09004KT 17/10 A3006 RMK A01 T01700100  RH  063%=      5-min Rain = 0
KCO2 120829Z 09004KT 17/10 A3006 RMK A01 T01690100  RH  063%=      5-min Rain = 0
KCO2 120830Z 09004KT 17/10 A3006 RMK A01 T01700100  RH  063%=      5-min Rain = 0
KCO2 120831Z 09004KT 17/10 A3006 RMK A01 T01690100  RH  064%=      5-min Rain = 0
KCO2 120832Z 09004KT 17/10 A3006 RMK A01 T01690100  RH  064%=      5-min Rain = 0
KCO2 120833Z 08004KT 17/10 A3006 RMK A01 T01680100  RH  064%=      5-min Rain = 0
KCO2 120834Z 08004KT 17/10 A3006 RMK A01 T01680100  RH  064%=      5-min Rain = 0
KCO2 120835Z 08004KT 17/10 A3006 RMK A01 T01680100  RH  064%=      5-min Rain = 0
KCO2 120836Z 09004KT 17/10 A3006 RMK A01 T01670100  RH  064%=      5-min Rain = 0
KCO2 120837Z 08003KT 17/10 A3005 RMK A01 T01660099  RH  065%=      5-min Rain = 0
KCO2 120838Z 09003KT 17/10 A3005 RMK A01 T01660100  RH  065%=      5-min Rain = 0
KCO2 120839Z 09003KT 17/10 A3005 RMK A01 T01660099  RH  065%=      5-min Rain = 0
KCO2 120840Z 09003KT 17/10 A3005 RMK A01 T01660099  RH  065%=      5-min Rain = 0
KCO2 120841Z 09003KT 17/10 A3005 RMK A01 T01660099  RH  065%=      5-min Rain = 0
KCO2 120842Z 09003KT 17/10 A3005 RMK A01 T01660099  RH  065%=      5-min Rain = 0
KCO2 120843Z 09003KT 17/10 A3005 RMK A01 T01650099  RH  065%=      5-min Rain = 0
KCO2 120844Z 09003KT 17/10 A3005 RMK A01 T01660099  RH  065%=      5-min Rain = 0
KCO2 120845Z 09003KT 17/10 A3005 RMK A01 T01660099  RH  065%=      5-min Rain = 0
KCO2 120846Z 09003KT 17/10 A3005 RMK A01 T01650099  RH  065%=      5-min Rain = 0
KCO2 120847Z 09003KT 17/10 A3005 RMK A01 T01660100  RH  065%=      5-min Rain = 0
KCO2 120848Z 09003KT 17/10 A3005 RMK A01 T01660100  RH  065%=      5-min Rain = 0
KCO2 120849Z 09003KT 17/10 A3005 RMK A01 T01650100  RH  065%=      5-min Rain = 0
KCO2 120850Z 08003KT 17/10 A3005 RMK A01 T01650100  RH  065%=      5-min Rain = 0
KCO2 120851Z 08003KT 17/10 A3005 RMK A01 T01650100  RH  065%=      5-min Rain = 0
KCO2 120852Z 08003KT 16/10 A3005 RMK A01 T01630099  RH  066%=      5-min Rain = 0
KCO2 120853Z 09003KT 16/10 A3005 RMK A01 T01610098  RH  066%=      5-min Rain = 0
KCO2 120854Z 08003KT 16/10 A3005 RMK A01 T01590097  RH  067%=      5-min Rain = 0
KCO2 120855Z 08003KT 16/10 A3005 RMK A01 T01570096  RH  067%=      5-min Rain = 0
KCO2 120856Z 08003KT 16/10 A3005 RMK A01 T01550096  RH  068%=      5-min Rain = 0
KCO2 120857Z 08002KT 15/10 A3005 RMK A01 T01540096  RH  069%=      5-min Rain = 0
KCO2 120858Z 08001KT 15/10 A3005 RMK A01 T01530096  RH  069%=      5-min Rain = 0
KCO2 120859Z 00000KT 15/10 A3005 RMK A01 T01500095  RH  070%=      5-min Rain = 0
KCO2 120900Z 08001KT 15/09 A3005 RMK A01 T01470094  RH  071%=      5-min Rain = 0
KCO2 120901Z 08001KT 15/10 A3005 RMK A01 T01450095  RH  072%=      5-min Rain = 0
KCO2 120902Z 08001KT 14/10 A3005 RMK A01 T01440095  RH  072%=      5-min Rain = 0
KCO2 120903Z 08001KT 14/10 A3005 RMK A01 T01430095  RH  073%=      5-min Rain = 0
KCO2 120904Z 08002KT 14/10 A3005 RMK A01 T01430096  RH  073%=      5-min Rain = 0
KCO2 120905Z 08002KT 14/10 A3005 RMK A01 T01430096  RH  074%=      5-min Rain = 0
KCO2 120906Z 08001KT 14/10 A3005 RMK A01 T01430096  RH  073%=      5-min Rain = 0
KCO2 120907Z 07001KT 14/10 A3005 RMK A01 T01430096  RH  074%=      5-min Rain = 0
KCO2 120908Z 07002KT 14/10 A3005 RMK A01 T01430097  RH  074%=      5-min Rain = 0
KCO2 120909Z 07002KT 14/10 A3005 RMK A01 T01430097  RH  074%=      5-min Rain = 0
KCO2 120910Z 08002KT 14/10 A3005 RMK A01 T01430096  RH  074%=      5-min Rain = 0
KCO2 120911Z 08001KT 14/10 A3005 RMK A01 T01420096  RH  074%=      5-min Rain = 0
KCO2 120912Z 08001KT 14/10 A3005 RMK A01 T01430097  RH  074%=      5-min Rain = 0
KCO2 120913Z 08002KT 14/10 A3005 RMK A01 T01430097  RH  074%=      5-min Rain = 0
KCO2 120914Z 08002KT 14/10 A3005 RMK A01 T01430097  RH  074%=      5-min Rain = 0
KCO2 120915Z 09002KT 14/10 A3005 RMK A01 T01430097  RH  074%=      5-min Rain = 0
KCO2 120916Z 09002KT 14/10 A3005 RMK A01 T01440097  RH  074%=      5-min Rain = 0
KCO2 120917Z 09002KT 14/10 A3005 RMK A01 T01440097  RH  074%=      5-min Rain = 0
KCO2 120918Z 09002KT 14/10 A3005 RMK A01 T01440098  RH  074%=      5-min Rain = 0
KCO2 120919Z 08003KT 15/10 A3005 RMK A01 T01450098  RH  073%=      5-min Rain = 0
KCO2 120920Z 08003KT 15/10 A3005 RMK A01 T01460097  RH  072%=      5-min Rain = 0
KCO2 120921Z 08003KT 15/10 A3005 RMK A01 T01480097  RH  071%=      5-min Rain = 0
KCO2 120922Z 08003KT 15/10 A3005 RMK A01 T01490097  RH  071%=      5-min Rain = 0
KCO2 120923Z 08003KT 15/10 A3005 RMK A01 T01500097  RH  070%=      5-min Rain = 0
KCO2 120924Z 08003KT 15/10 A3004 RMK A01 T01510097  RH  070%=      5-min Rain = 0
KCO2 120925Z 08002KT 15/10 A3004 RMK A01 T01510097  RH  070%=      5-min Rain = 0
KCO2 120926Z 08002KT 15/10 A3004 RMK A01 T01510097  RH  070%=      5-min Rain = 0
KCO2 120927Z 09003KT 15/10 A3004 RMK A01 T01510097  RH  070%=      5-min Rain = 0
KCO2 120928Z 08003KT 15/10 A3004 RMK A01 T01510097  RH  070%=      5-min Rain = 0
KCO2 120929Z 08003KT 15/10 A3004 RMK A01 T01520097  RH  070%=      5-min Rain = 0
KCO2 120930Z 08002KT 15/10 A3004 RMK A01 T01530097  RH  069%=      5-min Rain = 0
KCO2 120931Z 08002KT 15/10 A3004 RMK A01 T01530097  RH  069%=      5-min Rain = 0
KCO2 120932Z 08002KT 15/10 A3004 RMK A01 T01530097  RH  069%=      5-min Rain = 0
KCO2 120933Z 08002KT 15/10 A3004 RMK A01 T01530097  RH  070%=      5-min Rain = 0
KCO2 120934Z 08002KT 15/10 A3004 RMK A01 T01520097  RH  070%=      5-min Rain = 0
KCO2 120935Z 08002KT 15/10 A3004 RMK A01 T01510096  RH  069%=      5-min Rain = 0
KCO2 120936Z 08002KT 15/10 A3004 RMK A01 T01510095  RH  070%=      5-min Rain = 0
KCO2 120937Z 07002KT 15/10 A3004 RMK A01 T01500095  RH  070%=      5-min Rain = 0
KCO2 120938Z 07003KT 15/10 A3004 RMK A01 T01490095  RH  070%=      5-min Rain = 0
KCO2 120939Z 07003KT 15/10 A3004 RMK A01 T01490096  RH  070%=      5-min Rain = 0
KCO2 120940Z 07003KT 15/10 A3004 RMK A01 T01500096  RH  070%=      5-min Rain = 0
KCO2 120941Z 07003KT 15/10 A3004 RMK A01 T01500096  RH  070%=      5-min Rain = 0
KCO2 120942Z 07003KT 15/10 A3004 RMK A01 T01510096  RH  070%=      5-min Rain = 0
KCO2 120943Z 07003KT 15/10 A3004 RMK A01 T01500095  RH  070%=      5-min Rain = 0
KCO2 120944Z 08003KT 15/10 A3004 RMK A01 T01490096  RH  071%=      5-min Rain = 0
KCO2 120945Z 08003KT 15/10 A3004 RMK A01 T01480096  RH  071%=      5-min Rain = 0
KCO2 120946Z 08003KT 15/10 A3004 RMK A01 T01490096  RH  071%=      5-min Rain = 0
KCO2 120947Z 08003KT 15/10 A3004 RMK A01 T01500097  RH  071%=      5-min Rain = 0
KCO2 120948Z 08003KT 15/10 A3004 RMK A01 T01500097  RH  070%=      5-min Rain = 0
KCO2 120949Z 08003KT 15/10 A3004 RMK A01 T01510097  RH  070%=      5-min Rain = 0
KCO2 120950Z 08003KT 15/10 A3004 RMK A01 T01510097  RH  070%=      5-min Rain = 0
KCO2 120951Z 08003KT 15/10 A3004 RMK A01 T01510096  RH  070%=      5-min Rain = 0
KCO2 120952Z 09003KT 15/10 A3004 RMK A01 T01510096  RH  070%=      5-min Rain = 0
KCO2 120953Z 09003KT 15/10 A3004 RMK A01 T01520097  RH  070%=      5-min Rain = 0
KCO2 120954Z 09003KT 15/10 A3004 RMK A01 T01530097  RH  069%=      5-min Rain = 0
KCO2 120955Z 09003KT 15/10 A3004 RMK A01 T01530097  RH  069%=      5-min Rain = 0
KCO2 120956Z 09003KT 15/10 A3004 RMK A01 T01530097  RH  069%=      5-min Rain = 0
KCO2 120957Z 09003KT 15/10 A3004 RMK A01 T01530097  RH  069%=      5-min Rain = 0
KCO2 120958Z 09003KT 15/10 A3004 RMK A01 T01540097  RH  069%=      5-min Rain = 0
KCO2 120959Z 08003KT 16/10 A3004 RMK A01 T01550097  RH  068%=      5-min Rain = 0
KCO2 121000Z 08003KT 16/10 A3004 RMK A01 T01550097  RH  068%=      5-min Rain = 0
KCO2 121001Z 08004KT 16/10 A3004 RMK A01 T01550097  RH  068%=      5-min Rain = 0
KCO2 121002Z 08004KT 15/10 A3004 RMK A01 T01540097  RH  069%=      5-min Rain = 0
KCO2 121003Z 08003KT 15/10 A3004 RMK A01 T01530097  RH  069%=      5-min Rain = 0
KCO2 121004Z 08003KT 15/10 A3004 RMK A01 T01520097  RH  070%=      5-min Rain = 0
KCO2 121005Z 08003KT 15/10 A3004 RMK A01 T01510097  RH  070%=      5-min Rain = 0
KCO2 121006Z 08003KT 15/10 A3004 RMK A01 T01510097  RH  070%=      5-min Rain = 0
KCO2 121007Z 08003KT 15/10 A3004 RMK A01 T01510097  RH  070%=      5-min Rain = 0
KCO2 121008Z 08003KT 15/10 A3004 RMK A01 T01510097  RH  070%=      5-min Rain = 0
KCO2 121009Z 08003KT 15/10 A3004 RMK A01 T01510097  RH  070%=      5-min Rain = 0
KCO2 121010Z 08003KT 15/10 A3004 RMK A01 T01510097  RH  070%=      5-min Rain = 0
KCO2 121011Z 08003KT 15/10 A3004 RMK A01 T01510097  RH  070%=      5-min Rain = 0
KCO2 121012Z 08003KT 15/10 A3004 RMK A01 T01510097  RH  070%=      5-min Rain = 0
KCO2 121013Z 08003KT 15/10 A3004 RMK A01 T01510097  RH  070%=      5-min Rain = 0
KCO2 121014Z 08003KT 15/10 A3004 RMK A01 T01510097  RH  070%=      5-min Rain = 0
KCO2 121015Z 08003KT 15/10 A3004 RMK A01 T01510097  RH  070%=      5-min Rain = 0
KCO2 121016Z 08003KT 15/10 A3004 RMK A01 T01510097  RH  070%=      5-min Rain = 0
KCO2 121017Z 08003KT 15/10 A3004 RMK A01 T01510097  RH  070%=      5-min Rain = 0
KCO2 121018Z 07003KT 15/10 A3004 RMK A01 T01510097  RH  070%=      5-min Rain = 0
KCO2 121019Z 07003KT 15/10 A3004 RMK A01 T01520097  RH  070%=      5-min Rain = 0
KCO2 121020Z 07003KT 15/10 A3004 RMK A01 T01520098  RH  070%=      5-min Rain = 0
KCO2 121021Z 07003KT 15/10 A3004 RMK A01 T01510098  RH  070%=      5-min Rain = 0
KCO2 121022Z 07003KT 15/10 A3004 RMK A01 T01510098  RH  070%=      5-min Rain = 0
KCO2 121023Z 07003KT 15/10 A3004 RMK A01 T01500098  RH  071%=      5-min Rain = 0
KCO2 121024Z 07003KT 15/10 A3004 RMK A01 T01500097  RH  071%=      5-min Rain = 0
KCO2 121025Z 07003KT 15/10 A3004 RMK A01 T01490097  RH  071%=      5-min Rain = 0
KCO2 121026Z 07003KT 15/10 A3004 RMK A01 T01500097  RH  071%=      5-min Rain = 0
KCO2 121027Z 07003KT 15/10 A3004 RMK A01 T01490097  RH  071%=      5-min Rain = 0
KCO2 121028Z 07002KT 15/10 A3004 RMK A01 T01490096  RH  071%=      5-min Rain = 0
KCO2 121029Z 07002KT 15/10 A3004 RMK A01 T01490096  RH  070%=      5-min Rain = 0
KCO2 121030Z 07003KT 15/10 A3004 RMK A01 T01480095  RH  071%=      5-min Rain = 0
KCO2 121031Z 07003KT 15/10 A3004 RMK A01 T01480096  RH  071%=      5-min Rain = 0
KCO2 121032Z 07003KT 15/10 A3004 RMK A01 T01470095  RH  071%=      5-min Rain = 0
KCO2 121033Z 07002KT 15/10 A3004 RMK A01 T01460095  RH  071%=      5-min Rain = 0
KCO2 121034Z 07002KT 15/10 A3004 RMK A01 T01460095  RH  071%=      5-min Rain = 0
KCO2 121035Z 07002KT 14/09 A3004 RMK A01 T01440094  RH  072%=      5-min Rain = 0
KCO2 121036Z 06001KT 14/09 A3004 RMK A01 T01430094  RH  072%=      5-min Rain = 0
KCO2 121037Z 06001KT 14/09 A3004 RMK A01 T01430094  RH  072%=      5-min Rain = 0
KCO2 121038Z 06001KT 14/09 A3004 RMK A01 T01420094  RH  073%=      5-min Rain = 0
KCO2 121039Z 06001KT 14/09 A3005 RMK A01 T01420094  RH  073%=      5-min Rain = 0
KCO2 121040Z 07001KT 14/09 A3004 RMK A01 T01410094  RH  073%=      5-min Rain = 0
KCO2 121041Z 07001KT 14/09 A3005 RMK A01 T01410094  RH  073%=      5-min Rain = 0
KCO2 121042Z 07000KT 14/09 A3005 RMK A01 T01400094  RH  074%=      5-min Rain = 0
KCO2 121043Z 00000KT 14/09 A3005 RMK A01 T01400094  RH  074%=      5-min Rain = 0
KCO2 121044Z 00000KT 14/09 A3005 RMK A01 T01400094  RH  074%=      5-min Rain = 0
KCO2 121045Z 00000KT 14/09 A3005 RMK A01 T01400094  RH  074%=      5-min Rain = 0
KCO2 121046Z 00000KT 14/10 A3005 RMK A01 T01400095  RH  074%=      5-min Rain = 0
KCO2 121047Z 00000KT 14/10 A3005 RMK A01 T01390095  RH  074%=      5-min Rain = 0
KCO2 121048Z 00000KT 14/10 A3005 RMK A01 T01400095  RH  074%=      5-min Rain = 0
KCO2 121049Z 00000KT 14/10 A3005 RMK A01 T01400095  RH  074%=      5-min Rain = 0
KCO2 121050Z 00000KT 14/09 A3005 RMK A01 T01390094  RH  074%=      5-min Rain = 0
KCO2 121051Z 00000KT 14/09 A3005 RMK A01 T01390094  RH  074%=      5-min Rain = 0
KCO2 121052Z 00000KT 14/09 A3005 RMK A01 T01390094  RH  074%=      5-min Rain = 0
KCO2 121053Z 00000KT 14/09 A3005 RMK A01 T01390094  RH  074%=      5-min Rain = 0
KCO2 121054Z 00000KT 14/10 A3005 RMK A01 T01400095  RH  074%=      5-min Rain = 0
KCO2 121055Z 00000KT 14/09 A3005 RMK A01 T01390094  RH  074%=      5-min Rain = 0
KCO2 121056Z 00000KT 14/09 A3005 RMK A01 T01390094  RH  074%=      5-min Rain = 0
KCO2 121057Z 00000KT 14/09 A3005 RMK A01 T01390094  RH  074%=      5-min Rain = 0
KCO2 121058Z 00000KT 14/09 A3005 RMK A01 T01380094  RH  075%=      5-min Rain = 0
KCO2 121059Z 00000KT 14/09 A3005 RMK A01 T01380094  RH  075%=      5-min Rain = 0
KCO2 121100Z 00000KT 14/10 A3005 RMK A01 T01380095  RH  075%=      5-min Rain = 0
KCO2 121101Z 00000KT 14/10 A3005 RMK A01 T01380095  RH  075%=      5-min Rain = 0
KCO2 121102Z 00000KT 14/10 A3005 RMK A01 T01380095  RH  075%=      5-min Rain = 0
KCO2 121103Z 00000KT 14/09 A3005 RMK A01 T01380094  RH  075%=      5-min Rain = 0
KCO2 121104Z 00000KT 14/09 A3005 RMK A01 T01390094  RH  074%=      5-min Rain = 0
KCO2 121105Z 00000KT 14/09 A3005 RMK A01 T01400094  RH  074%=      5-min Rain = 0
KCO2 121106Z 00000KT 14/09 A3005 RMK A01 T01410094  RH  073%=      5-min Rain = 0
KCO2 121107Z 00000KT 14/09 A3005 RMK A01 T01420094  RH  073%=      5-min Rain = 0
KCO2 121108Z 00000KT 14/09 A3005 RMK A01 T01420094  RH  073%=      5-min Rain = 0
KCO2 121109Z 00000KT 14/09 A3005 RMK A01 T01430094  RH  073%=      5-min Rain = 0
KCO2 121110Z 00000KT 14/09 A3005 RMK A01 T01420094  RH  073%=      5-min Rain = 0
KCO2 121111Z 00000KT 14/09 A3005 RMK A01 T01420094  RH  073%=      5-min Rain = 0
KCO2 121112Z 00000KT 14/09 A3005 RMK A01 T01410094  RH  074%=      5-min Rain = 0
KCO2 121113Z 07001KT 14/09 A3005 RMK A01 T01390094  RH  074%=      5-min Rain = 0
KCO2 121114Z 06001KT 14/09 A3005 RMK A01 T01390094  RH  074%=      5-min Rain = 0
KCO2 121115Z 06001KT 14/09 A3005 RMK A01 T01380094  RH  075%=      5-min Rain = 0
KCO2 121116Z 05001KT 14/09 A3005 RMK A01 T01380094  RH  075%=      5-min Rain = 0
KCO2 121117Z 04002KT 14/09 A3005 RMK A01 T01380094  RH  074%=      5-min Rain = 0
KCO2 121118Z 04002KT 14/09 A3005 RMK A01 T01390094  RH  074%=      5-min Rain = 0
KCO2 121119Z 05002KT 14/09 A3005 RMK A01 T01390094  RH  074%=      5-min Rain = 0
KCO2 121120Z 05002KT 14/09 A3005 RMK A01 T01390094  RH  074%=      5-min Rain = 0
KCO2 121121Z 06002KT 14/09 A3005 RMK A01 T01390094  RH  074%=      5-min Rain = 0
KCO2 121122Z 06002KT 14/10 A3005 RMK A01 T01390095  RH  074%=      5-min Rain = 0
KCO2 121123Z 06003KT 14/10 A3005 RMK A01 T01380095  RH  075%=      5-min Rain = 0
KCO2 121124Z 06003KT 14/10 A3005 RMK A01 T01380095  RH  075%=      5-min Rain = 0
KCO2 121125Z 07003KT 14/10 A3005 RMK A01 T01370095  RH  076%=      5-min Rain = 0
KCO2 121126Z 07003KT 14/10 A3005 RMK A01 T01370096  RH  076%=      5-min Rain = 0
KCO2 121127Z 07002KT 14/10 A3005 RMK A01 T01370096  RH  076%=      5-min Rain = 0
KCO2 121128Z 07002KT 14/10 A3005 RMK A01 T01390096  RH  076%=      5-min Rain = 0
KCO2 121129Z 07002KT 14/10 A3005 RMK A01 T01400096  RH  075%=      5-min Rain = 0
KCO2 121130Z 07002KT 14/10 A3005 RMK A01 T01400097  RH  075%=      5-min Rain = 0
KCO2 121131Z 07002KT 14/10 A3005 RMK A01 T01400097  RH  075%=      5-min Rain = 0
KCO2 121132Z 07002KT 14/10 A3005 RMK A01 T01410097  RH  074%=      5-min Rain = 0
KCO2 121133Z 07002KT 14/10 A3005 RMK A01 T01420097  RH  074%=      5-min Rain = 0
KCO2 121134Z 07002KT 14/10 A3005 RMK A01 T01430097  RH  074%=      5-min Rain = 0
KCO2 121135Z 06002KT 14/10 A3005 RMK A01 T01440097  RH  073%=      5-min Rain = 0
KCO2 121136Z 06002KT 15/10 A3005 RMK A01 T01450096  RH  073%=      5-min Rain = 0
KCO2 121137Z 06002KT 15/10 A3005 RMK A01 T01460097  RH  072%=      5-min Rain = 0
KCO2 121138Z 06002KT 15/10 A3005 RMK A01 T01460096  RH  072%=      5-min Rain = 0
KCO2 121139Z 06002KT 15/10 A3005 RMK A01 T01460097  RH  072%=      5-min Rain = 0
KCO2 121140Z 05002KT 15/10 A3005 RMK A01 T01460096  RH  072%=      5-min Rain = 0
KCO2 121141Z 05002KT 15/10 A3005 RMK A01 T01460096  RH  072%=      5-min Rain = 0
KCO2 121142Z 05002KT 15/10 A3005 RMK A01 T01470096  RH  072%=      5-min Rain = 0
KCO2 121143Z 05002KT 15/10 A3005 RMK A01 T01470096  RH  072%=      5-min Rain = 0
KCO2 121144Z 05002KT 15/10 A3005 RMK A01 T01470096  RH  072%=      5-min Rain = 0
KCO2 121145Z 06002KT 15/10 A3005 RMK A01 T01470096  RH  072%=      5-min Rain = 0
KCO2 121146Z 06002KT 15/10 A3005 RMK A01 T01470096  RH  071%=      5-min Rain = 0
KCO2 121147Z 06002KT 15/10 A3006 RMK A01 T01480096  RH  071%=      5-min Rain = 0
KCO2 121148Z 07002KT 15/10 A3006 RMK A01 T01480097  RH  071%=      5-min Rain = 0
KCO2 121149Z 07002KT 15/10 A3006 RMK A01 T01480096  RH  071%=      5-min Rain = 0
KCO2 121150Z 07002KT 15/10 A3006 RMK A01 T01470096  RH  072%=      5-min Rain = 0
KCO2 121151Z 07003KT 15/10 A3006 RMK A01 T01460096  RH  072%=      5-min Rain = 0
KCO2 121152Z 07003KT 15/10 A3006 RMK A01 T01450096  RH  072%=      5-min Rain = 0
KCO2 121153Z 07003KT 14/10 A3006 RMK A01 T01440096  RH  073%=      5-min Rain = 0
KCO2 121154Z 07003KT 14/10 A3006 RMK A01 T01440096  RH  073%=      5-min Rain = 0
KCO2 121155Z 07002KT 14/10 A3006 RMK A01 T01440096  RH  073%=      5-min Rain = 0
KCO2 121156Z 07002KT 15/10 A3006 RMK A01 T01450096  RH  073%=      5-min Rain = 0
KCO2 121157Z 07002KT 15/10 A3006 RMK A01 T01450096  RH  072%=      5-min Rain = 0
KCO2 121158Z 07002KT 15/10 A3006 RMK A01 T01460096  RH  072%=      5-min Rain = 0
KCO2 121159Z 07002KT 15/10 A3006 RMK A01 T01460096  RH  072%=      5-min Rain = 0
KCO2 121200Z 07002KT 15/10 A3006 RMK A01 T01460097  RH  072%=      5-min Rain = 0
KCO2 121201Z 06002KT 15/10 A3006 RMK A01 T01460096  RH  072%=      5-min Rain = 0
KCO2 121202Z 06002KT 15/10 A3006 RMK A01 T01460096  RH  072%=      5-min Rain = 0
KCO2 121203Z 06002KT 15/10 A3006 RMK A01 T01460096  RH  072%=      5-min Rain = 0
KCO2 121204Z 06002KT 15/10 A3006 RMK A01 T01450096  RH  072%=      5-min Rain = 0
KCO2 121205Z 06002KT 14/09 A3006 RMK A01 T01430094  RH  072%=      5-min Rain = 0
KCO2 121206Z 07002KT 14/09 A3006 RMK A01 T01410093  RH  073%=      5-min Rain = 0
KCO2 121207Z 07002KT 14/09 A3006 RMK A01 T01400093  RH  074%=      5-min Rain = 0
KCO2 121208Z 07002KT 14/09 A3006 RMK A01 T01390093  RH  074%=      5-min Rain = 0
KCO2 121209Z 07002KT 14/09 A3006 RMK A01 T01390093  RH  074%=      5-min Rain = 0
KCO2 121210Z 08002KT 14/09 A3006 RMK A01 T01380094  RH  075%=      5-min Rain = 0
KCO2 121211Z 08002KT 14/09 A3006 RMK A01 T01380094  RH  075%=      5-min Rain = 0
KCO2 121212Z 08002KT 14/09 A3006 RMK A01 T01370094  RH  075%=      5-min Rain = 0
KCO2 121213Z 08002KT 14/10 A3006 RMK A01 T01370095  RH  076%=      5-min Rain = 0
KCO2 121214Z 08002KT 14/10 A3006 RMK A01 T01370095  RH  076%=      5-min Rain = 0
KCO2 121215Z 08002KT 14/10 A3006 RMK A01 T01370095  RH  075%=      5-min Rain = 0
KCO2 121216Z 08002KT 14/09 A3006 RMK A01 T01370094  RH  075%=      5-min Rain = 0
KCO2 121217Z 08003KT 14/09 A3006 RMK A01 T01380094  RH  075%=      5-min Rain = 0
KCO2 121218Z 08002KT 14/09 A3006 RMK A01 T01380094  RH  075%=      5-min Rain = 0
KCO2 121219Z 08003KT 14/09 A3006 RMK A01 T01380094  RH  075%=      5-min Rain = 0
KCO2 121220Z 08003KT 14/09 A3006 RMK A01 T01380094  RH  075%=      5-min Rain = 0
KCO2 121221Z 08003KT 14/09 A3006 RMK A01 T01380094  RH  074%=      5-min Rain = 0
KCO2 121222Z 08002KT 14/09 A3006 RMK A01 T01380094  RH  074%=      5-min Rain = 0
KCO2 121223Z 08003KT 14/09 A3006 RMK A01 T01390094  RH  074%=      5-min Rain = 0
KCO2 121224Z 08003KT 14/09 A3006 RMK A01 T01390094  RH  074%=      5-min Rain = 0
KCO2 121225Z 08003KT 14/09 A3006 RMK A01 T01400094  RH  074%=      5-min Rain = 0
KCO2 121226Z 08003KT 14/09 A3006 RMK A01 T01400094  RH  074%=      5-min Rain = 0
KCO2 121227Z 08003KT 14/10 A3006 RMK A01 T01410095  RH  074%=      5-min Rain = 0
KCO2 121228Z 08003KT 14/10 A3006 RMK A01 T01420096  RH  074%=      5-min Rain = 0
KCO2 121229Z 08003KT 14/10 A3006 RMK A01 T01440097  RH  073%=      5-min Rain = 0
KCO2 121230Z 08003KT 15/10 A3006 RMK A01 T01450097  RH  073%=      5-min Rain = 0
KCO2 121231Z 08002KT 15/10 A3006 RMK A01 T01460097  RH  072%=      5-min Rain = 0
KCO2 121232Z 08002KT 15/10 A3006 RMK A01 T01460097  RH  072%=      5-min Rain = 0
KCO2 121233Z 08002KT 15/10 A3006 RMK A01 T01470097  RH  072%=      5-min Rain = 0
KCO2 121234Z 08002KT 15/10 A3006 RMK A01 T01470097  RH  072%=      5-min Rain = 0
KCO2 121235Z 08002KT 15/10 A3006 RMK A01 T01480097  RH  072%=      5-min Rain = 0
KCO2 121236Z 08002KT 15/10 A3006 RMK A01 T01480097  RH  071%=      5-min Rain = 0
KCO2 121237Z 09002KT 15/10 A3006 RMK A01 T01490098  RH  071%=      5-min Rain = 0
KCO2 121238Z 09003KT 15/10 A3006 RMK A01 T01490098  RH  071%=      5-min Rain = 0
KCO2 121239Z 09003KT 15/10 A3006 RMK A01 T01490098  RH  071%=      5-min Rain = 0
KCO2 121240Z 09003KT 15/10 A3006 RMK A01 T01490098  RH  071%=      5-min Rain = 0
KCO2 121241Z 09003KT 15/10 A3006 RMK A01 T01500098  RH  071%=      5-min Rain = 0
KCO2 121242Z 09003KT 15/10 A3006 RMK A01 T01510098  RH  071%=      5-min Rain = 0
KCO2 121243Z 09004KT 15/10 A3006 RMK A01 T01520099  RH  071%=      5-min Rain = 0
KCO2 121244Z 10004KT 15/10 A3006 RMK A01 T01520100  RH  071%=      5-min Rain = 0
KCO2 121245Z 10004KT 15/10 A3006 RMK A01 T01530099  RH  071%=      5-min Rain = 0
KCO2 121246Z 10004KT 15/10 A3006 RMK A01 T01530100  RH  070%=      5-min Rain = 0
KCO2 121247Z 10004KT 15/10 A3006 RMK A01 T01530099  RH  070%=      5-min Rain = 0
KCO2 121248Z 10004KT 15/10 A3006 RMK A01 T01540099  RH  070%=      5-min Rain = 0
KCO2 121249Z 10004KT 15/10 A3006 RMK A01 T01540099  RH  069%=      5-min Rain = 0
KCO2 121250Z 11004KT 15/10 A3006 RMK A01 T01540099  RH  070%=      5-min Rain = 0
KCO2 121251Z 11004KT 15/10 A3006 RMK A01 T01540099  RH  070%=      5-min Rain = 0
KCO2 121252Z 11004KT 15/10 A3006 RMK A01 T01530099  RH  070%=      5-min Rain = 0
KCO2 121253Z 11004KT 15/10 A3007 RMK A01 T01520099  RH  071%=      5-min Rain = 0
KCO2 121254Z 11004KT 15/10 A3007 RMK A01 T01510100  RH  071%=      5-min Rain = 0
KCO2 121255Z 11004KT 15/10 A3007 RMK A01 T01500099  RH  072%=      5-min Rain = 0
KCO2 121256Z 11004KT 15/10 A3007 RMK A01 T01490100  RH  072%=      5-min Rain = 0
KCO2 121257Z 11004KT 15/10 A3007 RMK A01 T01480100  RH  073%=      5-min Rain = 0
KCO2 121258Z 11003KT 15/10 A3007 RMK A01 T01480100  RH  073%=      5-min Rain = 0
KCO2 121259Z 11003KT 15/10 A3007 RMK A01 T01480099  RH  073%=      5-min Rain = 0
KCO2 121300Z 11003KT 15/10 A3007 RMK A01 T01480100  RH  073%=      5-min Rain = 0
KCO2 121301Z 11003KT 15/10 A3007 RMK A01 T01490100  RH  072%=      5-min Rain = 0
KCO2 121302Z 11003KT 15/10 A3007 RMK A01 T01500100  RH  072%=      5-min Rain = 0
KCO2 121303Z 11003KT 15/10 A3007 RMK A01 T01510100  RH  071%=      5-min Rain = 0
KCO2 121304Z 11003KT 15/10 A3007 RMK A01 T01520100  RH  071%=      5-min Rain = 0
KCO2 121305Z 11002KT 15/10 A3007 RMK A01 T01530100  RH  071%=      5-min Rain = 0
KCO2 121306Z 11002KT 15/10 A3007 RMK A01 T01540101  RH  071%=      5-min Rain = 0
KCO2 121307Z 11002KT 15/10 A3007 RMK A01 T01540101  RH  070%=      5-min Rain = 0
KCO2 121308Z 10002KT 16/10 A3007 RMK A01 T01550101  RH  070%=      5-min Rain = 0
KCO2 121309Z 10002KT 16/10 A3007 RMK A01 T01560102  RH  070%=      5-min Rain = 0
KCO2 121310Z 09002KT 16/10 A3007 RMK A01 T01570104  RH  071%=      5-min Rain = 0
KCO2 121311Z 09001KT 16/11 A3007 RMK A01 T01580109  RH  073%=      5-min Rain = 0
KCO2 121312Z 08001KT 16/11 A3007 RMK A01 T01570109  RH  073%=      5-min Rain = 0
KCO2 121313Z 08001KT 16/11 A3007 RMK A01 T01570109  RH  073%=      5-min Rain = 0
KCO2 121314Z 08001KT 16/11 A3007 RMK A01 T01560109  RH  073%=      5-min Rain = 0
KCO2 121315Z 08000KT 16/11 A3007 RMK A01 T01560109  RH  074%=      5-min Rain = 0
KCO2 121316Z 09000KT 16/11 A3007 RMK A01 T01550108  RH  073%=      5-min Rain = 0
KCO2 121317Z 00000KT 16/11 A3007 RMK A01 T01550110  RH  075%=      5-min Rain = 0
KCO2 121318Z 00000KT 16/11 A3007 RMK A01 T01550111  RH  075%=      5-min Rain = 0
KCO2 121319Z 00000KT 16/11 A3007 RMK A01 T01550111  RH  075%=      5-min Rain = 0
KCO2 121320Z 00000KT 16/11 A3007 RMK A01 T01550111  RH  075%=      5-min Rain = 0
KCO2 121321Z 00000KT 16/11 A3007 RMK A01 T01550111  RH  075%=      5-min Rain = 0
KCO2 121322Z 00000KT 16/11 A3007 RMK A01 T01550110  RH  074%=      5-min Rain = 0
KCO2 121323Z 00000KT 16/11 A3007 RMK A01 T01560108  RH  073%=      5-min Rain = 0
KCO2 121324Z 00000KT 16/11 A3007 RMK A01 T01560108  RH  073%=      5-min Rain = 0
KCO2 121325Z 10000KT 16/11 A3007 RMK A01 T01570109  RH  073%=      5-min Rain = 0
KCO2 121326Z 25001KT 16/11 A3007 RMK A01 T01580110  RH  073%=      5-min Rain = 0
KCO2 121327Z 28001KT 16/11 A3007 RMK A01 T01590111  RH  073%=      5-min Rain = 0
KCO2 121328Z 28001KT 16/11 A3007 RMK A01 T01590111  RH  073%=      5-min Rain = 0
KCO2 121329Z 28000KT 16/11 A3007 RMK A01 T01600109  RH  072%=      5-min Rain = 0
KCO2 121330Z 26001KT 16/11 A3007 RMK A01 T01610109  RH  071%=      5-min Rain = 0
KCO2 121331Z 25001KT 16/11 A3007 RMK A01 T01610109  RH  071%=      5-min Rain = 0
KCO2 121332Z 25000KT 16/11 A3007 RMK A01 T01620109  RH  071%=      5-min Rain = 0
KCO2 121333Z 25000KT 16/11 A3007 RMK A01 T01620109  RH  070%=      5-min Rain = 0
KCO2 121334Z 25000KT 16/11 A3007 RMK A01 T01630109  RH  070%=      5-min Rain = 0
KCO2 121335Z 24000KT 16/11 A3007 RMK A01 T01630110  RH  070%=      5-min Rain = 0
KCO2 121336Z 00000KT 17/11 A3007 RMK A01 T01650110  RH  070%=      5-min Rain = 0
KCO2 121337Z 24000KT 17/11 A3007 RMK A01 T01660109  RH  069%=      5-min Rain = 0
KCO2 121338Z 23000KT 17/11 A3007 RMK A01 T01670110  RH  069%=      5-min Rain = 0
KCO2 121339Z 23000KT 17/11 A3007 RMK A01 T01680110  RH  069%=      5-min Rain = 0
KCO2 121340Z 26000KT 17/11 A3007 RMK A01 T01690109  RH  068%=      5-min Rain = 0
KCO2 121341Z 00000KT 17/11 A3007 RMK A01 T01700109  RH  067%=      5-min Rain = 0
KCO2 121342Z 00000KT 17/11 A3007 RMK A01 T01710111  RH  068%=      5-min Rain = 0
KCO2 121343Z 00000KT 17/11 A3007 RMK A01 T01730112  RH  067%=      5-min Rain = 0
KCO2 121344Z 15000KT 18/11 A3007 RMK A01 T01750110  RH  065%=      5-min Rain = 0
KCO2 121345Z 15000KT 18/11 A3007 RMK A01 T01770109  RH  064%=      5-min Rain = 0
KCO2 121346Z 14000KT 18/11 A3007 RMK A01 T01790110  RH  064%=      5-min Rain = 0
KCO2 121347Z 14001KT 18/11 A3007 RMK A01 T01800111  RH  064%=      5-min Rain = 0
KCO2 121348Z 15000KT 18/11 A3007 RMK A01 T01810112  RH  064%=      5-min Rain = 0
KCO2 121349Z 00000KT 18/11 A3007 RMK A01 T01830114  RH  064%=      5-min Rain = 0
KCO2 121350Z 00000KT 19/11 A3007 RMK A01 T01860114  RH  063%=      5-min Rain = 0
KCO2 121351Z 14000KT 19/11 A3007 RMK A01 T01880114  RH  062%=      5-min Rain = 0
KCO2 121352Z 14001KT 19/11 A3007 RMK A01 T01890113  RH  061%=      5-min Rain = 0
KCO2 121353Z 15001KT 19/11 A3007 RMK A01 T01910112  RH  060%=      5-min Rain = 0
KCO2 121354Z 14001KT 19/11 A3007 RMK A01 T01920114  RH  061%=      5-min Rain = 0
KCO2 121355Z 13001KT 19/12 A3007 RMK A01 T01930115  RH  061%=      5-min Rain = 0
KCO2 121356Z 15001KT 19/11 A3007 RMK A01 T01940113  RH  060%=      5-min Rain = 0
KCO2 121357Z 14001KT 20/11 A3007 RMK A01 T01950114  RH  059%=      5-min Rain = 0
KCO2 121358Z 13002KT 20/11 A3007 RMK A01 T01960112  RH  058%=      5-min Rain = 0
KCO2 121359Z 15001KT 20/11 A3007 RMK A01 T01960112  RH  058%=      5-min Rain = 0
KCO2 121400Z 16002KT 20/11 A3007 RMK A01 T01970110  RH  057%=      5-min Rain = 0
KCO2 121401Z 17002KT 20/11 A3007 RMK A01 T01970109  RH  057%=      5-min Rain = 0
KCO2 121402Z 17002KT 20/11 A3007 RMK A01 T01970108  RH  056%=      5-min Rain = 0
KCO2 121403Z 17002KT 20/11 A3007 RMK A01 T01970108  RH  056%=      5-min Rain = 0
KCO2 121404Z 18002KT 20/11 A3007 RMK A01 T01970107  RH  056%=      5-min Rain = 0
KCO2 121405Z 18003KT 20/11 A3007 RMK A01 T01970108  RH  056%=      5-min Rain = 0
KCO2 121406Z 17002KT 20/11 A3007 RMK A01 T01970107  RH  056%=      5-min Rain = 0
KCO2 121407Z 18003KT 20/11 A3007 RMK A01 T01980106  RH  055%=      5-min Rain = 0
KCO2 121408Z 17002KT 20/11 A3007 RMK A01 T01980107  RH  056%=      5-min Rain = 0
KCO2 121409Z 16002KT 20/11 A3007 RMK A01 T01990107  RH  055%=      5-min Rain = 0
KCO2 121410Z 16002KT 20/11 A3007 RMK A01 T01990107  RH  055%=      5-min Rain = 0
KCO2 121411Z 18002KT 20/11 A3007 RMK A01 T02000109  RH  056%=      5-min Rain = 0
KCO2 121412Z 18003KT 20/11 A3007 RMK A01 T02000107  RH  055%=      5-min Rain = 0
KCO2 121413Z 18003KT 20/11 A3007 RMK A01 T02000107  RH  055%=      5-min Rain = 0
KCO2 121414Z 18002KT 20/11 A3007 RMK A01 T02000108  RH  055%=      5-min Rain = 0
KCO2 121415Z 15002KT 20/11 A3007 RMK A01 T02000108  RH  055%=      5-min Rain = 0
KCO2 121416Z 18002KT 20/11 A3007 RMK A01 T02010108  RH  055%=      5-min Rain = 0
KCO2 121417Z 18002KT 20/11 A3007 RMK A01 T02020108  RH  054%=      5-min Rain = 0
KCO2 121418Z 18002KT 20/11 A3007 RMK A01 T02020107  RH  054%=      5-min Rain = 0
KCO2 121419Z 17002KT 20/11 A3007 RMK A01 T02030109  RH  055%=      5-min Rain = 0
KCO2 121420Z 16002KT 20/11 A3007 RMK A01 T02040110  RH  055%=      5-min Rain = 0
KCO2 121421Z 15001KT 21/11 A3007 RMK A01 T02050109  RH  054%=      5-min Rain = 0
KCO2 121422Z 18001KT 21/11 A3007 RMK A01 T02060109  RH  054%=      5-min Rain = 0
KCO2 121423Z 18002KT 21/11 A3007 RMK A01 T02070108  RH  053%=      5-min Rain = 0
KCO2 121424Z 20001KT 21/11 A3007 RMK A01 T02070109  RH  053%=      5-min Rain = 0
KCO2 121425Z 23001KT 21/11 A3007 RMK A01 T02070109  RH  053%=      5-min Rain = 0
KCO2 121426Z 20001KT 21/11 A3007 RMK A01 T02080110  RH  053%=      5-min Rain = 0
KCO2 121427Z 16001KT 21/11 A3007 RMK A01 T02090110  RH  053%=      5-min Rain = 0
KCO2 121428Z 16001KT 21/11 A3007 RMK A01 T02100113  RH  054%=      5-min Rain = 0
KCO2 121429Z 20002KT 21/11 A3007 RMK A01 T02110113  RH  053%=      5-min Rain = 0
KCO2 121430Z 20002KT 21/11 A3007 RMK A01 T02120111  RH  052%=      5-min Rain = 0
KCO2 121431Z 21001KT 21/11 A3007 RMK A01 T02130111  RH  052%=      5-min Rain = 0
KCO2 121432Z 16001KT 21/11 A3007 RMK A01 T02130111  RH  052%=      5-min Rain = 0
KCO2 121433Z 13001KT 21/11 A3007 RMK A01 T02130112  RH  053%=      5-min Rain = 0
KCO2 121434Z 18002KT 21/11 A3007 RMK A01 T02140112  RH  052%=      5-min Rain = 0
KCO2 121435Z 18002KT 22/11 A3007 RMK A01 T02160112  RH  052%=      5-min Rain = 0
KCO2 121436Z 19001KT 22/11 A3007 RMK A01 T02170112  RH  051%=      5-min Rain = 0
KCO2 121437Z 21000KT 22/11 A3007 RMK A01 T02170112  RH  051%=      5-min Rain = 0
KCO2 121438Z 21001KT 22/11 A3007 RMK A01 T02180113  RH  051%=      5-min Rain = 0
KCO2 121439Z 23001KT 22/11 A3007 RMK A01 T02200114  RH  051%=      5-min Rain = 0
KCO2 121440Z 22001KT 22/11 A3007 RMK A01 T02210114  RH  051%=      5-min Rain = 0
KCO2 121441Z 20001KT 22/11 A3007 RMK A01 T02220114  RH  050%=      5-min Rain = 0
KCO2 121442Z 20002KT 22/12 A3007 RMK A01 T02240115  RH  050%=      5-min Rain = 0
KCO2 121443Z 22001KT 22/11 A3007 RMK A01 T02240114  RH  050%=      5-min Rain = 0
KCO2 121444Z 19001KT 22/11 A3007 RMK A01 T02240113  RH  050%=      5-min Rain = 0
KCO2 121445Z 18002KT 22/11 A3007 RMK A01 T02240113  RH  050%=      5-min Rain = 0
KCO2 121446Z 17003KT 23/12 A3007 RMK A01 T02260115  RH  049%=      5-min Rain = 0
KCO2 121447Z 17003KT 23/11 A3007 RMK A01 T02270112  RH  048%=      5-min Rain = 0
KCO2 121448Z 19002KT 23/11 A3007 RMK A01 T02280114  RH  048%=      5-min Rain = 0
KCO2 121449Z 18002KT 23/11 A3007 RMK A01 T02290114  RH  048%=      5-min Rain = 0
KCO2 121450Z 22003KT 23/11 A3007 RMK A01 T02290114  RH  048%=      5-min Rain = 0
KCO2 121451Z 21002KT 23/11 A3007 RMK A01 T02290113  RH  048%=      5-min Rain = 0
KCO2 121452Z 23002KT 23/12 A3007 RMK A01 T02310115  RH  048%=      5-min Rain = 0
KCO2 121453Z 22002KT 23/11 A3007 RMK A01 T02320113  RH  047%=      5-min Rain = 0
KCO2 121454Z 23003KT 23/11 A3007 RMK A01 T02320109  RH  046%=      5-min Rain = 0
KCO2 121455Z 23003KT 23/11 A3007 RMK A01 T02320110  RH  046%=      5-min Rain = 0
KCO2 121456Z 22003KT 23/11 A3007 RMK A01 T02330109  RH  046%=      5-min Rain = 0
KCO2 121457Z 21004KT 23/11 A3007 RMK A01 T02330110  RH  046%=      5-min Rain = 0
KCO2 121458Z 20003KT 23/11 A3007 RMK A01 T02320109  RH  046%=      5-min Rain = 0
KCO2 121459Z 20003KT 23/11 A3007 RMK A01 T02320106  RH  045%=      5-min Rain = 0
KCO2 121500Z 23003KT 23/11 A3007 RMK A01 T02320111  RH  046%=      5-min Rain = 0
KCO2 121501Z 24003KT 23/11 A3007 RMK A01 T02340111  RH  046%=      5-min Rain = 0
KCO2 121502Z 25004KT 24/11 A3007 RMK A01 T02360110  RH  045%=      5-min Rain = 0
KCO2 121503Z 26003KT 24/11 A3007 RMK A01 T02370109  RH  045%=      5-min Rain = 0
KCO2 121504Z 20003KT 24/11 A3007 RMK A01 T02360111  RH  045%=      5-min Rain = 0
KCO2 121505Z 18003KT 24/11 A3007 RMK A01 T02360111  RH  045%=      5-min Rain = 0
KCO2 121506Z 20004KT 24/11 A3007 RMK A01 T02370110  RH  045%=      5-min Rain = 0
KCO2 121507Z 21004KT 24/11 A3007 RMK A01 T02370109  RH  044%=      5-min Rain = 0
KCO2 121508Z 19004KT 24/11 A3007 RMK A01 T02380108  RH  044%=      5-min Rain = 0
KCO2 121509Z 19005KT 24/11 A3007 RMK A01 T02390106  RH  043%=      5-min Rain = 0
KCO2 121510Z 18003KT 24/11 A3007 RMK A01 T02380105  RH  043%=      5-min Rain = 0
KCO2 121511Z 20003KT 24/11 A3006 RMK A01 T02380106  RH  043%=      5-min Rain = 0
KCO2 121512Z 21003KT 24/11 A3006 RMK A01 T02380109  RH  044%=      5-min Rain = 0
KCO2 121513Z 23003KT 24/11 A3006 RMK A01 T02400113  RH  045%=      5-min Rain = 0
KCO2 121514Z 21003KT 24/11 A3006 RMK A01 T02430110  RH  043%=      5-min Rain = 0
KCO2 121515Z 23003KT 24/11 A3006 RMK A01 T02430112  RH  044%=      5-min Rain = 0
KCO2 121516Z 20003KT 24/11 A3006 RMK A01 T02430112  RH  044%=      5-min Rain = 0
KCO2 121517Z 24004KT 25/11 A3006 RMK A01 T02460114  RH  044%=      5-min Rain = 0
KCO2 121518Z 24003KT 25/11 A3006 RMK A01 T02460106  RH  041%=      5-min Rain = 0
KCO2 121519Z 25004KT 25/11 A3006 RMK A01 T02450107  RH  042%=      5-min Rain = 0
KCO2 121520Z 25003KT 25/11 A3006 RMK A01 T02450110  RH  043%=      5-min Rain = 0
KCO2 121521Z 20003KT 25/11 A3006 RMK A01 T02470108  RH  042%=      5-min Rain = 0
KCO2 121522Z 23003KT 25/10 A3006 RMK A01 T02460104  RH  041%=      5-min Rain = 0
KCO2 121523Z 27003KT 25/11 A3006 RMK A01 T02460105  RH  041%=      5-min Rain = 0
KCO2 121524Z 26003KT 25/11 A3006 RMK A01 T02460107  RH  041%=      5-min Rain = 0
KCO2 121525Z 24003KT 25/11 A3006 RMK A01 T02470109  RH  042%=      5-min Rain = 0
KCO2 121526Z 25002KT 25/11 A3006 RMK A01 T02480106  RH  041%=      5-min Rain = 0
KCO2 121527Z 19002KT 25/11 A3006 RMK A01 T02480107  RH  041%=      5-min Rain = 0
KCO2 121528Z 19002KT 25/11 A3006 RMK A01 T02480110  RH  042%=      5-min Rain = 0
KCO2 121529Z 24003KT 25/11 A3006 RMK A01 T02500106  RH  040%=      5-min Rain = 0
KCO2 121530Z 23005KT 25/10 A3006 RMK A01 T02500101  RH  039%=      5-min Rain = 0
KCO2 121531Z 23003KT 25/10 A3006 RMK A01 T02500103  RH  040%=      5-min Rain = 0
KCO2 121532Z 20002KT 25/11 A3006 RMK A01 T02480105  RH  040%=      5-min Rain = 0
KCO2 121533Z 21003KT 25/11 A3006 RMK A01 T02480106  RH  041%=      5-min Rain = 0
KCO2 121534Z 23002KT 25/11 A3006 RMK A01 T02490107  RH  041%=      5-min Rain = 0
KCO2 121535Z 22003KT 25/11 A3006 RMK A01 T02500108  RH  041%=      5-min Rain = 0
KCO2 121536Z 22004KT 25/11 A3006 RMK A01 T02510106  RH  040%=      5-min Rain = 0
KCO2 121537Z 19002KT 25/11 A3006 RMK A01 T02510106  RH  040%=      5-min Rain = 0
KCO2 121538Z 16001KT 25/11 A3006 RMK A01 T02520105  RH  040%=      5-min Rain = 0
KCO2 121539Z 21003KT 25/11 A3006 RMK A01 T02520105  RH  039%=      5-min Rain = 0
KCO2 121540Z 24003KT 25/11 A3006 RMK A01 T02530105  RH  039%=      5-min Rain = 0
KCO2 121541Z 24003KT 25/11 A3006 RMK A01 T02520106  RH  040%=      5-min Rain = 0
KCO2 121542Z 19004KT 25/11 A3006 RMK A01 T02530107  RH  040%=      5-min Rain = 0
KCO2 121543Z 19004KT 26/11 A3006 RMK A01 T02550106  RH  039%=      5-min Rain = 0
KCO2 121544Z 17002KT 26/11 A3006 RMK A01 T02550106  RH  039%=      5-min Rain = 0
KCO2 121545Z 29002KT 25/11 A3006 RMK A01 T02540107  RH  040%=      5-min Rain = 0
KCO2 121546Z 28002KT 26/11 A3006 RMK A01 T02550107  RH  039%=      5-min Rain = 0
KCO2 121547Z 22003KT 26/11 A3006 RMK A01 T02550108  RH  040%=      5-min Rain = 0
KCO2 121548Z 22003KT 26/11 A3006 RMK A01 T02570107  RH  039%=      5-min Rain = 0
KCO2 121549Z 24001KT 26/11 A3006 RMK A01 T02570106  RH  039%=      5-min Rain = 0
KCO2 121550Z 20004KT 26/11 A3006 RMK A01 T02580107  RH  039%=      5-min Rain = 0
KCO2 121551Z 20004KT 26/11 A3006 RMK A01 T02590107  RH  039%=      5-min Rain = 0
KCO2 121552Z 20004KT 26/10 A3006 RMK A01 T02580104  RH  038%=      5-min Rain = 0
KCO2 121553Z 19004G9KT 26/10 A3006 RMK A01 T02580104  RH  038%=      5-min Rain = 0
KCO2 121554Z 22005KT 26/10 A3006 RMK A01 T02600102  RH  037%=      5-min Rain = 0
KCO2 121555Z 23006KT 26/10 A3006 RMK A01 T02630102  RH  036%=      5-min Rain = 0
KCO2 121556Z 25005KT 27/11 A3006 RMK A01 T02660105  RH  036%=      5-min Rain = 0
KCO2 121557Z 22005KT 27/10 A3006 RMK A01 T02680102  RH  035%=      5-min Rain = 0
KCO2 121558Z 25004KT 27/10 A3006 RMK A01 T02690104  RH  036%=      5-min Rain = 0
KCO2 121559Z 21004KT 27/10 A3006 RMK A01 T02700103  RH  035%=      5-min Rain = 0
KCO2 121600Z 21005KT 27/10 A3006 RMK A01 T02690103  RH  035%=      5-min Rain = 0
KCO2 121601Z 20004KT 27/10 A3006 RMK A01 T02690103  RH  035%=      5-min Rain = 0
KCO2 121602Z 19004KT 27/10 A3006 RMK A01 T02680102  RH  035%=      5-min Rain = 0
KCO2 121603Z 20006KT 27/10 A3006 RMK A01 T02680104  RH  036%=      5-min Rain = 0
KCO2 121604Z 25006KT 27/11 A3006 RMK A01 T02690105  RH  036%=      5-min Rain = 0
KCO2 121605Z 26003KT 27/10 A3006 RMK A01 T02700103  RH  035%=      5-min Rain = 0
KCO2 121606Z 21005KT 27/10 A3006 RMK A01 T02690104  RH  035%=      5-min Rain = 0
KCO2 121607Z 20005KT 27/10 A3006 RMK A01 T02690102  RH  035%=      5-min Rain = 0
KCO2 121608Z 20005KT 27/10 A3006 RMK A01 T02690104  RH  036%=      5-min Rain = 0
KCO2 121609Z 22004KT 27/11 A3006 RMK A01 T02680105  RH  036%=      5-min Rain = 0
KCO2 121610Z 22004KT 27/10 A3006 RMK A01 T02680104  RH  036%=      5-min Rain = 0
KCO2 121611Z 23003KT 27/11 A3006 RMK A01 T02680105  RH  036%=      5-min Rain = 0
KCO2 121612Z 24002KT 27/11 A3006 RMK A01 T02680105  RH  036%=      5-min Rain = 0
KCO2 121613Z 20004KT 27/11 A3006 RMK A01 T02690105  RH  036%=      5-min Rain = 0
KCO2 121614Z 21004KT 27/11 A3006 RMK A01 T02710109  RH  036%=      5-min Rain = 0
KCO2 121615Z 19004KT 28/11 A3006 RMK A01 T02750106  RH  035%=      5-min Rain = 0
KCO2 121616Z 18004KT 28/11 A3006 RMK A01 T02750105  RH  034%=      5-min Rain = 0
KCO2 121617Z 18004KT 27/10 A3006 RMK A01 T02740103  RH  034%=      5-min Rain = 0
KCO2 121618Z 20002KT 27/10 A3006 RMK A01 T02710102  RH  035%=      5-min Rain = 0
KCO2 121619Z 26003KT 27/10 A3006 RMK A01 T02700102  RH  035%=      5-min Rain = 0
KCO2 121620Z 26003KT 27/10 A3006 RMK A01 T02710103  RH  035%=      5-min Rain = 0
KCO2 121621Z 29004KT 27/10 A3006 RMK A01 T02710102  RH  035%=      5-min Rain = 0
KCO2 121622Z 28003KT 27/10 A3006 RMK A01 T02710101  RH  034%=      5-min Rain = 0
KCO2 121623Z 24004KT 27/11 A3005 RMK A01 T02730105  RH  035%=      5-min Rain = 0
KCO2 121624Z 26002KT 27/10 A3005 RMK A01 T02740101  RH  034%=      5-min Rain = 0
KCO2 121625Z 25002KT 27/10 A3005 RMK A01 T02720100  RH  034%=      5-min Rain = 0
KCO2 121626Z 21005KT 27/10 A3005 RMK A01 T02710102  RH  035%=      5-min Rain = 0
KCO2 121627Z 21006KT 27/10 A3005 RMK A01 T02730102  RH  034%=      5-min Rain = 0
KCO2 121628Z 24004KT 27/11 A3005 RMK A01 T02740105  RH  035%=      5-min Rain = 0
KCO2 121629Z 26003KT 28/10 A3005 RMK A01 T02770104  RH  034%=      5-min Rain = 0
KCO2 121630Z 22003KT 28/11 A3005 RMK A01 T02770106  RH  034%=      5-min Rain = 0
KCO2 121631Z 18002KT 28/10 A3005 RMK A01 T02780102  RH  033%=      5-min Rain = 0
KCO2 121632Z 18003KT 28/10 A3005 RMK A01 T02770103  RH  034%=      5-min Rain = 0
KCO2 121633Z 21004KT 28/11 A3005 RMK A01 T02780106  RH  034%=      5-min Rain = 0
KCO2 121634Z 24004KT 28/11 A3005 RMK A01 T02820108  RH  034%=      5-min Rain = 0
KCO2 121635Z 23003KT 28/11 A3005 RMK A01 T02840107  RH  033%=      5-min Rain = 0
KCO2 121636Z 26002KT 28/11 A3005 RMK A01 T02840105  RH  033%=      5-min Rain = 0
KCO2 121637Z 24003KT 28/10 A3005 RMK A01 T02810102  RH  033%=      5-min Rain = 0
KCO2 121638Z 24006KT 28/10 A3005 RMK A01 T02810103  RH  033%=      5-min Rain = 0
KCO2 121639Z 25005KT 28/10 A3005 RMK A01 T02810102  RH  033%=      5-min Rain = 0
KCO2 121640Z 23003KT 28/10 A3005 RMK A01 T02780101  RH  033%=      5-min Rain = 0
KCO2 121641Z 24002KT 28/10 A3005 RMK A01 T02770101  RH  033%=      5-min Rain = 0
KCO2 121642Z 26005KT 28/10 A3005 RMK A01 T02790103  RH  033%=      5-min Rain = 0
KCO2 121643Z 26002KT 28/10 A3005 RMK A01 T02790100  RH  033%=      5-min Rain = 0
KCO2 121644Z 04000KT 28/10 A3005 RMK A01 T02780100  RH  033%=      5-min Rain = 0
KCO2 121645Z 07001KT 28/10 A3005 RMK A01 T02770101  RH  033%=      5-min Rain = 0
KCO2 121646Z 22003KT 28/10 A3004 RMK A01 T02780104  RH  034%=      5-min Rain = 0
KCO2 121647Z 22005KT 28/11 A3004 RMK A01 T02830109  RH  034%=      5-min Rain = 0
KCO2 121648Z 22005KT 29/11 A3004 RMK A01 T02870106  RH  032%=      5-min Rain = 0
KCO2 121649Z 21005KT 29/11 A3004 RMK A01 T02870106  RH  032%=      5-min Rain = 0
KCO2 121650Z 19005KT 29/11 A3004 RMK A01 T02870106  RH  032%=      5-min Rain = 0
KCO2 121651Z 16005KT 29/11 A3004 RMK A01 T02860105  RH  032%=      5-min Rain = 0
KCO2 121652Z 14004KT 29/10 A3004 RMK A01 T02850103  RH  032%=      5-min Rain = 0
KCO2 121653Z 16004KT 28/11 A3004 RMK A01 T02840105  RH  033%=      5-min Rain = 0
KCO2 121654Z 17002KT 29/11 A3004 RMK A01 T02850106  RH  033%=      5-min Rain = 0
KCO2 121655Z 25003KT 29/11 A3004 RMK A01 T02880109  RH  033%=      5-min Rain = 0
KCO2 121656Z 27003KT 29/10 A3004 RMK A01 T02920104  RH  031%=      5-min Rain = 0
KCO2 121657Z 31001KT 29/10 A3004 RMK A01 T02910104  RH  031%=      5-min Rain = 0
KCO2 121658Z 22000KT 29/10 A3004 RMK A01 T02910104  RH  031%=      5-min Rain = 0
KCO2 121659Z 19001KT 29/11 A3004 RMK A01 T02930105  RH  031%=      5-min Rain = 0
KCO2 121700Z 19003KT 29/11 A3004 RMK A01 T02940106  RH  031%=      5-min Rain = 0
KCO2 121701Z 21003KT 30/11 A3004 RMK A01 T02950107  RH  031%=      5-min Rain = 0
KCO2 121702Z 19004KT 30/11 A3004 RMK A01 T02960107  RH  031%=      5-min Rain = 0
KCO2 121703Z 19006KT 30/11 A3004 RMK A01 T02950106  RH  031%=      5-min Rain = 0
KCO2 121704Z 18004KT 29/11 A3004 RMK A01 T02930105  RH  031%=      5-min Rain = 0
KCO2 121705Z 17005KT 29/11 A3004 RMK A01 T02920105  RH  031%=      5-min Rain = 0
KCO2 121706Z 18005KT 29/10 A3004 RMK A01 T02910104  RH  031%=      5-min Rain = 0
KCO2 121707Z 17005KT 29/10 A3004 RMK A01 T02900103  RH  031%=      5-min Rain = 0
KCO2 121708Z 19005KT 29/10 A3004 RMK A01 T02900104  RH  031%=      5-min Rain = 0
KCO2 121709Z 18004KT 29/10 A3004 RMK A01 T02890103  RH  032%=      5-min Rain = 0
KCO2 121710Z 17003KT 29/10 A3004 RMK A01 T02880103  RH  032%=      5-min Rain = 0
KCO2 121711Z 20002KT 29/11 A3004 RMK A01 T02890106  RH  032%=      5-min Rain = 0
KCO2 121712Z 22006KT 29/11 A3004 RMK A01 T02920106  RH  032%=      5-min Rain = 0
KCO2 121713Z 23004KT 29/11 A3004 RMK A01 T02920105  RH  031%=      5-min Rain = 0
KCO2 121714Z 22005KT 29/11 A3003 RMK A01 T02930107  RH  031%=      5-min Rain = 0
KCO2 121715Z 24004KT 30/11 A3003 RMK A01 T02970105  RH  031%=      5-min Rain = 0
KCO2 121716Z 27006KT 30/11 A3003 RMK A01 T02960107  RH  031%=      5-min Rain = 0
KCO2 121717Z 28005KT 30/11 A3003 RMK A01 T02970106  RH  031%=      5-min Rain = 0
KCO2 121718Z 30005KT 30/10 A3003 RMK A01 T02960103  RH  030%=      5-min Rain = 0
KCO2 121719Z 30002KT 29/10 A3003 RMK A01 T02920101  RH  030%=      5-min Rain = 0
KCO2 121720Z 28004KT 29/10 A3003 RMK A01 T02910103  RH  031%=      5-min Rain = 0
KCO2 121721Z 15001KT 29/10 A3003 RMK A01 T02910100  RH  031%=      5-min Rain = 0
KCO2 121722Z 15002KT 29/10 A3003 RMK A01 T02910101  RH  031%=      5-min Rain = 0
KCO2 121723Z 23003KT 29/11 A3003 RMK A01 T02920105  RH  031%=      5-min Rain = 0
KCO2 121724Z 24002KT 30/11 A3003 RMK A01 T02960105  RH  030%=      5-min Rain = 0
KCO2 121725Z 24002G8KT 30/10 A3003 RMK A01 T02960102  RH  030%=      5-min Rain = 0
KCO2 121726Z 24006KT 30/11 A3003 RMK A01 T02970106  RH  031%=      5-min Rain = 0
KCO2 121727Z 25005KT 30/10 A3003 RMK A01 T02980104  RH  030%=      5-min Rain = 0
KCO2 121728Z 25006KT 30/11 A3003 RMK A01 T02970106  RH  031%=      5-min Rain = 0
KCO2 121729Z 24003KT 30/10 A3003 RMK A01 T02980104  RH  030%=      5-min Rain = 0
KCO2 121730Z 25004KT 30/10 A3003 RMK A01 T02960103  RH  030%=      5-min Rain = 0
KCO2 121731Z 23002KT 29/10 A3003 RMK A01 T02940102  RH  030%=      5-min Rain = 0
KCO2 121732Z 27000KT 29/10 A3003 RMK A01 T02940102  RH  030%=      5-min Rain = 0
KCO2 121733Z 26001KT 30/10 A3003 RMK A01 T02950102  RH  030%=      5-min Rain = 0
KCO2 121734Z 34000KT 30/10 A3003 RMK A01 T02950101  RH  030%=      5-min Rain = 0
KCO2 121735Z 02002KT 30/10 A3003 RMK A01 T02950101  RH  030%=      5-min Rain = 0
KCO2 121736Z 00001KT 30/11 A3003 RMK A01 T02960105  RH  030%=      5-min Rain = 0
KCO2 121737Z 02001KT 30/11 A3003 RMK A01 T02990107  RH  031%=      5-min Rain = 0
KCO2 121738Z 08003KT 30/11 A3003 RMK A01 T03010106  RH  030%=      5-min Rain = 0
KCO2 121739Z 06002KT 30/10 A3002 RMK A01 T03000103  RH  030%=      5-min Rain = 0
KCO2 121740Z 31001KT 30/11 A3002 RMK A01 T02980105  RH  030%=      5-min Rain = 0
KCO2 121741Z 32004KT 30/11 A3002 RMK A01 T02990106  RH  030%=      5-min Rain = 0
KCO2 121742Z 22011G17KT 30/11 A3001 RMK A01 T03030109  RH  030%=      5-min Rain = 0
KCO2 121743Z 20003KT 31/11 A3002 RMK A01 T03060105  RH  029%=      5-min Rain = 0
KCO2 121744Z 26005KT 31/11 A3002 RMK A01 T03050107  RH  029%=      5-min Rain = 0
KCO2 121745Z 28006KT 31/11 A3002 RMK A01 T03070106  RH  029%=      5-min Rain = 0
KCO2 121746Z 29006KT 31/11 A3002 RMK A01 T03050105  RH  029%=      5-min Rain = 0
KCO2 121747Z 29005KT 31/11 A3002 RMK A01 T03050108  RH  030%=      5-min Rain = 0
KCO2 121748Z 29006KT 31/11 A3002 RMK A01 T03080109  RH  029%=      5-min Rain = 0
KCO2 121749Z 31003KT 31/10 A3002 RMK A01 T03080103  RH  028%=      5-min Rain = 0
KCO2 121750Z 12001KT 30/10 A3002 RMK A01 T03020101  RH  029%=      5-min Rain = 0
KCO2 121751Z 31003KT 30/11 A3002 RMK A01 T03010105  RH  030%=      5-min Rain = 0
KCO2 121752Z 29002KT 30/10 A3002 RMK A01 T03030104  RH  029%=      5-min Rain = 0
KCO2 121753Z 29004KT 30/11 A3002 RMK A01 T03030105  RH  029%=      5-min Rain = 0
KCO2 121754Z 29003KT 30/11 A3002 RMK A01 T03040106  RH  029%=      5-min Rain = 0
KCO2 121755Z 35001KT 30/11 A3002 RMK A01 T03040105  RH  029%=      5-min Rain = 0
KCO2 121756Z 03001KT 31/10 A3001 RMK A01 T03050104  RH  029%=      5-min Rain = 0
KCO2 121757Z 31007KT 31/11 A3001 RMK A01 T03050107  RH  029%=      5-min Rain = 0
KCO2 121758Z 28004KT 31/11 A3001 RMK A01 T03070108  RH  029%=      5-min Rain = 0
KCO2 121759Z 24003KT 31/11 A3001 RMK A01 T03080107  RH  029%=      5-min Rain = 0
KCO2 121800Z 26006KT 31/11 A3001 RMK A01 T03100107  RH  029%=      5-min Rain = 0
KCO2 121801Z 27006KT 31/11 A3001 RMK A01 T03090107  RH  029%=      5-min Rain = 0
KCO2 121802Z 29008KT 31/11 A3001 RMK A01 T03090108  RH  029%=      5-min Rain = 0
KCO2 121803Z 28008KT 31/11 A3001 RMK A01 T03110109  RH  029%=      5-min Rain = 0
KCO2 121804Z 27007KT 31/11 A3001 RMK A01 T03110106  RH  028%=      5-min Rain = 0
KCO2 121805Z 29005KT 31/11 A3001 RMK A01 T03080105  RH  029%=      5-min Rain = 0
KCO2 121806Z 33003KT 31/10 A3001 RMK A01 T03050104  RH  029%=      5-min Rain = 0
KCO2 121807Z 33001KT 30/10 A3001 RMK A01 T03040104  RH  029%=      5-min Rain = 0
KCO2 121808Z 33002KT 30/11 A3001 RMK A01 T03040105  RH  029%=      5-min Rain = 0
KCO2 121809Z 33003KT 31/11 A3001 RMK A01 T03070108  RH  029%=      5-min Rain = 0
KCO2 121810Z 35003KT 31/11 A3001 RMK A01 T03100106  RH  029%=      5-min Rain = 0
KCO2 121811Z 03004KT 31/11 A3001 RMK A01 T03100107  RH  029%=      5-min Rain = 0
KCO2 121812Z 03004KT 31/11 A3001 RMK A01 T03110110  RH  029%=      5-min Rain = 0
KCO2 121813Z 01003KT 31/11 A3001 RMK A01 T03120109  RH  029%=      5-min Rain = 0
KCO2 121814Z 36003KT 31/11 A3001 RMK A01 T03120106  RH  028%=      5-min Rain = 0
KCO2 121815Z 04002KT 31/11 A3001 RMK A01 T03110107  RH  028%=      5-min Rain = 0
KCO2 121816Z 10002KT 31/11 A3001 RMK A01 T03110108  RH  029%=      5-min Rain = 0
KCO2 121817Z 07002KT 31/11 A3001 RMK A01 T03130108  RH  028%=      5-min Rain = 0
KCO2 121818Z 29003KT 31/11 A3001 RMK A01 T03130107  RH  028%=      5-min Rain = 0
KCO2 121819Z 26006KT 31/11 A3001 RMK A01 T03140110  RH  029%=      5-min Rain = 0
KCO2 121820Z 28006KT 32/11 A3001 RMK A01 T03160110  RH  028%=      5-min Rain = 0
KCO2 121821Z 29006KT 32/11 A3001 RMK A01 T03160109  RH  028%=      5-min Rain = 0
KCO2 121822Z 29006KT 32/11 A3001 RMK A01 T03150109  RH  028%=      5-min Rain = 0
KCO2 121823Z 29006KT 31/11 A3001 RMK A01 T03140108  RH  028%=      5-min Rain = 0
KCO2 121824Z 27006KT 31/11 A3001 RMK A01 T03120108  RH  028%=      5-min Rain = 0
KCO2 121825Z 27006KT 31/11 A30 RMK A01 T03130110  RH  029%=      5-min Rain = 0
KCO2 121826Z 29005KT 31/11 A30 RMK A01 T03130108  RH  028%=      5-min Rain = 0
KCO2 121827Z 31005KT 31/11 A30 RMK A01 T03120108  RH  028%=      5-min Rain = 0
KCO2 121828Z 30006KT 31/11 A30 RMK A01 T03120109  RH  029%=      5-min Rain = 0
KCO2 121829Z 31004KT 31/11 A30 RMK A01 T03120110  RH  029%=      5-min Rain = 0
KCO2 121830Z 28002KT 31/11 A30 RMK A01 T03130108  RH  028%=      5-min Rain = 0
KCO2 121831Z 27005KT 31/11 A30 RMK A01 T03140110  RH  029%=      5-min Rain = 0
KCO2 121832Z 26005KT 32/11 A30 RMK A01 T03160110  RH  028%=      5-min Rain = 0
KCO2 121833Z 24004KT 31/11 A30 RMK A01 T03140108  RH  028%=      5-min Rain = 0
KCO2 121834Z 26004KT 31/11 A30 RMK A01 T03120108  RH  028%=      5-min Rain = 0
KCO2 121835Z 24004KT 31/11 A30 RMK A01 T03120107  RH  028%=      5-min Rain = 0
KCO2 121836Z 22003KT 31/11 A30 RMK A01 T03100108  RH  029%=      5-min Rain = 0
KCO2 121837Z 24004KT 31/11 A30 RMK A01 T03120109  RH  029%=      5-min Rain = 0
KCO2 121838Z 23003KT 31/11 A30 RMK A01 T03130108  RH  028%=      5-min Rain = 0
KCO2 121839Z 22003KT 31/11 A2999 RMK A01 T03140109  RH  028%=      5-min Rain = 0
KCO2 121840Z 21002KT 31/11 A2999 RMK A01 T03140108  RH  028%=      5-min Rain = 0
KCO2 121841Z 23002KT 31/11 A2999 RMK A01 T03140108  RH  028%=      5-min Rain = 0
KCO2 121842Z 32002KT 32/11 A2999 RMK A01 T03150108  RH  028%=      5-min Rain = 0
KCO2 121843Z 35000KT 32/11 A2999 RMK A01 T03150108  RH  028%=      5-min Rain = 0
KCO2 121844Z 02002KT 32/11 A2999 RMK A01 T03160111  RH  028%=      5-min Rain = 0
KCO2 121845Z 01004KT 32/11 A2999 RMK A01 T03190112  RH  028%=      5-min Rain = 0
KCO2 121846Z 32004KT 32/11 A2999 RMK A01 T03210110  RH  027%=      5-min Rain = 0
KCO2 121847Z 01003KT 32/11 A2999 RMK A01 T03180108  RH  028%=      5-min Rain = 0
KCO2 121848Z 32002KT 32/11 A2999 RMK A01 T03170109  RH  028%=      5-min Rain = 0
KCO2 121849Z 33006KT 32/11 A2999 RMK A01 T03200111  RH  028%=      5-min Rain = 0
KCO2 121850Z 33006KT 32/11 A2999 RMK A01 T03220111  RH  027%=      5-min Rain = 0
KCO2 121851Z 35006KT 32/11 A2999 RMK A01 T03230111  RH  027%=      5-min Rain = 0
KCO2 121852Z 36005KT 32/11 A2999 RMK A01 T03220110  RH  027%=      5-min Rain = 0
KCO2 121853Z 34003KT 32/11 A2999 RMK A01 T03190109  RH  028%=      5-min Rain = 0
KCO2 121854Z 27004G11KT 32/11 A2999 RMK A01 T03190112  RH  028%=      5-min Rain = 0
KCO2 121855Z 33007KT 32/11 A2999 RMK A01 T03240114  RH  028%=      5-min Rain = 0
KCO2 121856Z 31004KT 33/11 A2999 RMK A01 T03250110  RH  027%=      5-min Rain = 0
KCO2 121857Z 31007KT 32/11 A2999 RMK A01 T03240112  RH  027%=      5-min Rain = 0
KCO2 121858Z 31006KT 32/11 A2999 RMK A01 T03240111  RH  027%=      5-min Rain = 0
KCO2 121859Z 26004KT 32/11 A2999 RMK A01 T03220110  RH  027%=      5-min Rain = 0
KCO2 121900Z 29004KT 32/11 A2998 RMK A01 T03190111  RH  028%=      5-min Rain = 0
KCO2 121901Z 30005KT 32/11 A2998 RMK A01 T03200111  RH  028%=      5-min Rain = 0
KCO2 121902Z 24003KT 32/11 A2998 RMK A01 T03210111  RH  028%=      5-min Rain = 0
KCO2 121903Z 19002KT 32/11 A2998 RMK A01 T03220110  RH  027%=      5-min Rain = 0
KCO2 121904Z 12002KT 32/11 A2998 RMK A01 T03220111  RH  027%=      5-min Rain = 0
KCO2 121905Z 01004KT 32/12 A2998 RMK A01 T03230115  RH  028%=      5-min Rain = 0
KCO2 121906Z 33005KT 33/11 A2998 RMK A01 T03260113  RH  027%=      5-min Rain = 0
KCO2 121907Z 34004KT 33/11 A2998 RMK A01 T03280112  RH  027%=      5-min Rain = 0
KCO2 121908Z 02007KT 33/11 A2998 RMK A01 T03290114  RH  027%=      5-min Rain = 0
KCO2 121909Z 36006KT 33/12 A2998 RMK A01 T03290116  RH  027%=      5-min Rain = 0
KCO2 121910Z 34005KT 33/11 A2998 RMK A01 T03310113  RH  026%=      5-min Rain = 0
KCO2 121911Z 01006KT 33/11 A2998 RMK A01 T03310114  RH  027%=      5-min Rain = 0
KCO2 121912Z 01006KT 33/11 A2998 RMK A01 T03300112  RH  026%=      5-min Rain = 0
KCO2 121913Z 03006KT 33/12 A2997 RMK A01 T03290116  RH  027%=      5-min Rain = 0
KCO2 121914Z 02004KT 33/11 A2997 RMK A01 T03310113  RH  026%=      5-min Rain = 0
KCO2 121915Z 05005KT 33/11 A2997 RMK A01 T03290114  RH  027%=      5-min Rain = 0
KCO2 121916Z 03005KT 33/11 A2997 RMK A01 T03260112  RH  027%=      5-min Rain = 0
KCO2 121917Z 01008KT 33/11 A2997 RMK A01 T03250113  RH  027%=      5-min Rain = 0
KCO2 121918Z 01006KT 33/11 A2997 RMK A01 T03260112  RH  027%=      5-min Rain = 0
KCO2 121919Z 01005KT 33/11 A2997 RMK A01 T03270113  RH  027%=      5-min Rain = 0
KCO2 121920Z 03003KT 33/11 A2997 RMK A01 T03270114  RH  027%=      5-min Rain = 0
KCO2 121921Z 02001KT 33/11 A2997 RMK A01 T03270111  RH  027%=      5-min Rain = 0
KCO2 121922Z 25000KT 33/11 A2997 RMK A01 T03260110  RH  027%=      5-min Rain = 0
KCO2 121923Z 21001KT 32/11 A2997 RMK A01 T03240110  RH  027%=      5-min Rain = 0
KCO2 121924Z 28002KT 32/11 A2997 RMK A01 T03240110  RH  027%=      5-min Rain = 0
KCO2 121925Z 29001KT 33/11 A2997 RMK A01 T03250110  RH  027%=      5-min Rain = 0
KCO2 121926Z 30002KT 33/11 A2997 RMK A01 T03250110  RH  027%=      5-min Rain = 0
KCO2 121927Z 23004KT 33/11 A2997 RMK A01 T03250112  RH  027%=      5-min Rain = 0
KCO2 121928Z 27003KT 33/12 A2997 RMK A01 T03320115  RH  027%=      5-min Rain = 0
KCO2 121929Z 28005KT 33/11 A2997 RMK A01 T03330111  RH  026%=      5-min Rain = 0
KCO2 121930Z 28005KT 33/11 A2997 RMK A01 T03290110  RH  026%=      5-min Rain = 0
KCO2 121931Z 28003KT 33/11 A2997 RMK A01 T03280112  RH  027%=      5-min Rain = 0
KCO2 121932Z 32009KT 33/11 A2996 RMK A01 T03320114  RH  026%=      5-min Rain = 0
KCO2 121933Z 31006KT 34/11 A2996 RMK A01 T03350114  RH  026%=      5-min Rain = 0
KCO2 121934Z 01004KT 33/11 A2996 RMK A01 T03340111  RH  026%=      5-min Rain = 0
KCO2 121935Z 00003KT 33/11 A2996 RMK A01 T03310112  RH  026%=      5-min Rain = 0
KCO2 121936Z 01004KT 33/11 A2996 RMK A01 T03310113  RH  026%=      5-min Rain = 0
KCO2 121937Z 31006KT 33/11 A2996 RMK A01 T03310112  RH  026%=      5-min Rain = 0
KCO2 121938Z 32005KT 33/11 A2996 RMK A01 T03330112  RH  026%=      5-min Rain = 0
KCO2 121939Z 32004G9KT 33/11 A2996 RMK A01 T03320110  RH  026%=      5-min Rain = 0
KCO2 121940Z 33009KT 33/11 A2996 RMK A01 T03320111  RH  026%=      5-min Rain = 0
KCO2 121941Z 33006KT 33/11 A2996 RMK A01 T03300109  RH  026%=      5-min Rain = 0
KCO2 121942Z 35006KT 33/11 A2996 RMK A01 T03280109  RH  026%=      5-min Rain = 0
KCO2 121943Z 35006KT 33/11 A2996 RMK A01 T03280110  RH  026%=      5-min Rain = 0
KCO2 121944Z 33005KT 33/11 A2996 RMK A01 T03280109  RH  026%=      5-min Rain = 0
KCO2 121945Z 32004KT 33/11 A2996 RMK A01 T03270109  RH  026%=      5-min Rain = 0
KCO2 121946Z 24001KT 33/11 A2996 RMK A01 T03260108  RH  026%=      5-min Rain = 0
KCO2 121947Z 04004KT 33/11 A2995 RMK A01 T03260112  RH  027%=      5-min Rain = 0
KCO2 121948Z 01006KT 33/11 A2995 RMK A01 T03280112  RH  027%=      5-min Rain = 0
KCO2 121949Z 01009KT 33/11 A2995 RMK A01 T03290112  RH  027%=      5-min Rain = 0
KCO2 121950Z 03007KT 33/11 A2995 RMK A01 T03290110  RH  026%=      5-min Rain = 0
KCO2 121951Z 05006KT 33/11 A2995 RMK A01 T03270111  RH  027%=      5-min Rain = 0
KCO2 121952Z 08004KT 33/11 A2995 RMK A01 T03270113  RH  027%=      5-min Rain = 0
KCO2 121953Z 09004KT 33/12 A2995 RMK A01 T03280116  RH  027%=      5-min Rain = 0
KCO2 121954Z 05006KT 33/11 A2995 RMK A01 T03300112  RH  026%=      5-min Rain = 0
KCO2 121955Z 34007KT 33/11 A2995 RMK A01 T03290112  RH  026%=      5-min Rain = 0
KCO2 121956Z 32005KT 33/11 A2995 RMK A01 T03300110  RH  026%=      5-min Rain = 0
KCO2 121957Z 32007KT 33/11 A2995 RMK A01 T03310111  RH  026%=      5-min Rain = 0
KCO2 121958Z 33006KT 33/11 A2995 RMK A01 T03330110  RH  026%=      5-min Rain = 0
KCO2 121959Z 31008KT 33/11 A2994 RMK A01 T03310111  RH  026%=      5-min Rain = 0
KCO2 122000Z 31006KT 34/11 A2994 RMK A01 T03350111  RH  026%=      5-min Rain = 0
KCO2 122001Z 32004KT 33/11 A2994 RMK A01 T03340111  RH  026%=      5-min Rain = 0
KCO2 122002Z 34004G9KT 33/11 A2994 RMK A01 T03340111  RH  026%=      5-min Rain = 0
KCO2 122003Z 34007KT 34/11 A2994 RMK A01 T03360112  RH  026%=      5-min Rain = 0
KCO2 122004Z 35006KT 34/11 A2994 RMK A01 T03390113  RH  025%=      5-min Rain = 0
KCO2 122005Z 35004KT 34/11 A2994 RMK A01 T03400114  RH  025%=      5-min Rain = 0
KCO2 122006Z 33006KT 34/11 A2994 RMK A01 T03410114  RH  025%=      5-min Rain = 0
KCO2 122007Z 31005KT 34/11 A2994 RMK A01 T03410111  RH  025%=      5-min Rain = 0
KCO2 122008Z 28005KT 34/11 A2994 RMK A01 T03380110  RH  025%=      5-min Rain = 0
KCO2 122009Z 30005KT 34/11 A2994 RMK A01 T03360109  RH  025%=      5-min Rain = 0
KCO2 122010Z 25003KT 33/11 A2994 RMK A01 T03330110  RH  026%=      5-min Rain = 0
KCO2 122011Z 19003KT 33/11 A2994 RMK A01 T03320109  RH  026%=      5-min Rain = 0
KCO2 122012Z 24003KT 33/11 A2994 RMK A01 T03300111  RH  026%=      5-min Rain = 0
KCO2 122013Z 32005KT 33/11 A2994 RMK A01 T03330112  RH  026%=      5-min Rain = 0
KCO2 122014Z 35006KT 34/11 A2994 RMK A01 T03360111  RH  025%=      5-min Rain = 0
KCO2 122015Z 34005KT 34/11 A2994 RMK A01 T03350110  RH  025%=      5-min Rain = 0
KCO2 122016Z 30003KT 33/11 A2993 RMK A01 T03340110  RH  025%=      5-min Rain = 0
KCO2 122017Z 31001G6KT 33/11 A2993 RMK A01 T03340110  RH  026%=      5-min Rain = 0
KCO2 122018Z 19001KT 33/11 A2993 RMK A01 T03340109  RH  025%=      5-min Rain = 0
KCO2 122019Z 01007KT 33/11 A2993 RMK A01 T03340111  RH  026%=      5-min Rain = 0
KCO2 122020Z 02006KT 34/11 A2993 RMK A01 T03360112  RH  026%=      5-min Rain = 0
KCO2 122021Z 35009KT 34/11 A2993 RMK A01 T03370114  RH  026%=      5-min Rain = 0
KCO2 122022Z 33006KT 34/11 A2993 RMK A01 T03400112  RH  025%=      5-min Rain = 0
KCO2 122023Z 32005KT 34/11 A2993 RMK A01 T03410114  RH  025%=      5-min Rain = 0
KCO2 122024Z 30003KT 34/11 A2993 RMK A01 T03420111  RH  025%=      5-min Rain = 0
KCO2 122025Z 31002KT 34/11 A2993 RMK A01 T03400111  RH  025%=      5-min Rain = 0
KCO2 122026Z 29002KT 34/11 A2993 RMK A01 T03400110  RH  025%=      5-min Rain = 0
KCO2 122027Z 32002KT 34/11 A2993 RMK A01 T03390110  RH  025%=      5-min Rain = 0
KCO2 122028Z 03004KT 34/11 A2993 RMK A01 T03380110  RH  025%=      5-min Rain = 0
KCO2 122029Z 04008KT 34/11 A2993 RMK A01 T03380114  RH  026%=      5-min Rain = 0
KCO2 122030Z 04006KT 34/11 A2993 RMK A01 T03370111  RH  025%=      5-min Rain = 0
KCO2 122031Z 02006KT 34/11 A2993 RMK A01 T03350111  RH  026%=      5-min Rain = 0
KCO2 122032Z 00005KT 33/11 A2992 RMK A01 T03340112  RH  026%=      5-min Rain = 0
KCO2 122033Z 35006KT 33/11 A2992 RMK A01 T03340109  RH  025%=      5-min Rain = 0
KCO2 122034Z 03004KT 33/11 A2992 RMK A01 T03330109  RH  025%=      5-min Rain = 0
KCO2 122035Z 36006KT 33/11 A2992 RMK A01 T03330113  RH  026%=      5-min Rain = 0
KCO2 122036Z 02008KT 34/11 A2992 RMK A01 T03370113  RH  026%=      5-min Rain = 0
KCO2 122037Z 01008KT 34/11 A2992 RMK A01 T03370113  RH  026%=      5-min Rain = 0
KCO2 122038Z 01008KT 34/11 A2992 RMK A01 T03380114  RH  026%=      5-min Rain = 0
KCO2 122039Z 36006KT 34/12 A2992 RMK A01 T03390115  RH  026%=      5-min Rain = 0
KCO2 122040Z 01007KT 34/12 A2992 RMK A01 T03430115  RH  025%=      5-min Rain = 0
KCO2 122041Z 35004KT 34/12 A2992 RMK A01 T03430115  RH  025%=      5-min Rain = 0
KCO2 122042Z 00004KT 34/11 A2992 RMK A01 T03440114  RH  025%=      5-min Rain = 0
KCO2 122043Z 35005KT 35/11 A2992 RMK A01 T03450113  RH  024%=      5-min Rain = 0
KCO2 122044Z 34005KT 34/11 A2992 RMK A01 T03440111  RH  024%=      5-min Rain = 0
KCO2 122045Z 31008KT 34/11 A2992 RMK A01 T03430111  RH  024%=      5-min Rain = 0
KCO2 122046Z 31007KT 34/11 A2992 RMK A01 T03430111  RH  024%=      5-min Rain = 0
KCO2 122047Z 32004KT 34/11 A2992 RMK A01 T03420111  RH  024%=      5-min Rain = 0
KCO2 122048Z 36003KT 34/11 A2992 RMK A01 T03400110  RH  025%=      5-min Rain = 0
KCO2 122049Z 34001KT 34/11 A2992 RMK A01 T03380110  RH  025%=      5-min Rain = 0
KCO2 122050Z 28002KT 34/11 A2992 RMK A01 T03370109  RH  025%=      5-min Rain = 0
KCO2 122051Z 28005KT 34/11 A2991 RMK A01 T03380112  RH  025%=      5-min Rain = 0
KCO2 122052Z 27006KT 34/11 A2991 RMK A01 T03420113  RH  025%=      5-min Rain = 0
KCO2 122053Z 27005KT 34/11 A2991 RMK A01 T03430111  RH  024%=      5-min Rain = 0
KCO2 122054Z 23004KT 34/11 A2991 RMK A01 T03400109  RH  025%=      5-min Rain = 0
KCO2 122055Z 22004KT 34/11 A2991 RMK A01 T03390111  RH  025%=      5-min Rain = 0
KCO2 122056Z 24005KT 34/11 A2991 RMK A01 T03400111  RH  025%=      5-min Rain = 0
KCO2 122057Z 25007KT 34/11 A2991 RMK A01 T03410112  RH  025%=      5-min Rain = 0
KCO2 122058Z 24006KT 35/11 A2991 RMK A01 T03450114  RH  025%=      5-min Rain = 0
KCO2 122059Z 27005KT 35/11 A2991 RMK A01 T03470113  RH  024%=      5-min Rain = 0
KCO2 122100Z 30005KT 35/11 A2991 RMK A01 T03470113  RH  024%=      5-min Rain = 0
KCO2 122101Z 28007KT 35/11 A2991 RMK A01 T03470113  RH  024%=      5-min Rain = 0
KCO2 122102Z 27005KT 35/11 A2991 RMK A01 T03470110  RH  024%=      5-min Rain = 0
KCO2 122103Z 28006KT 34/11 A2991 RMK A01 T03440112  RH  024%=      5-min Rain = 0
KCO2 122104Z 30007KT 35/11 A2991 RMK A01 T03460112  RH  024%=      5-min Rain = 0
KCO2 122105Z 31007KT 35/11 A2991 RMK A01 T03480112  RH  024%=      5-min Rain = 0
KCO2 122106Z 33010KT 35/11 A2991 RMK A01 T03480112  RH  024%=      5-min Rain = 0
KCO2 122107Z 32009KT 35/11 A2991 RMK A01 T03470111  RH  024%=      5-min Rain = 0
KCO2 122108Z 33007G14KT 35/11 A2991 RMK A01 T03460111  RH  024%=      5-min Rain = 0
KCO2 122109Z 35009KT 35/11 A2991 RMK A01 T03470112  RH  024%=      5-min Rain = 0
KCO2 122110Z 34006KT 35/11 A2991 RMK A01 T03460110  RH  024%=      5-min Rain = 0
KCO2 122111Z 33003KT 34/11 A2991 RMK A01 T03440110  RH  024%=      5-min Rain = 0
KCO2 122112Z 00004KT 35/11 A2991 RMK A01 T03450111  RH  024%=      5-min Rain = 0
KCO2 122113Z 02005KT 34/11 A2991 RMK A01 T03440111  RH  024%=      5-min Rain = 0
KCO2 122114Z 03005KT 34/11 A2991 RMK A01 T03440113  RH  025%=      5-min Rain = 0
KCO2 122115Z 34005KT 34/11 A299 RMK A01 T03440113  RH  025%=      5-min Rain = 0
KCO2 122116Z 34001KT 34/11 A299 RMK A01 T03430109  RH  024%=      5-min Rain = 0
KCO2 122117Z 27002KT 34/11 A299 RMK A01 T03410109  RH  024%=      5-min Rain = 0
KCO2 122118Z 25002KT 34/11 A299 RMK A01 T03410110  RH  024%=      5-min Rain = 0
KCO2 122119Z 25000KT 34/11 A299 RMK A01 T03410109  RH  024%=      5-min Rain = 0
KCO2 122120Z 36001KT 34/11 A299 RMK A01 T03420110  RH  024%=      5-min Rain = 0
KCO2 122121Z 00004KT 34/11 A299 RMK A01 T03430111  RH  024%=      5-min Rain = 0
KCO2 122122Z 01005G10KT 34/11 A299 RMK A01 T03430112  RH  025%=      5-min Rain = 0
KCO2 122123Z 05006KT 34/11 A299 RMK A01 T03430113  RH  025%=      5-min Rain = 0
KCO2 122124Z 04004KT 34/12 A299 RMK A01 T03420116  RH  025%=      5-min Rain = 0
KCO2 122125Z 01004KT 34/11 A299 RMK A01 T03410113  RH  025%=      5-min Rain = 0
KCO2 122126Z 36001KT 34/11 A299 RMK A01 T03410111  RH  025%=      5-min Rain = 0
KCO2 122127Z 31000KT 34/11 A299 RMK A01 T03400111  RH  025%=      5-min Rain = 0
KCO2 122128Z 35001KT 34/11 A299 RMK A01 T03420111  RH  025%=      5-min Rain = 0
KCO2 122129Z 35004KT 35/11 A299 RMK A01 T03450114  RH  025%=      5-min Rain = 0
KCO2 122130Z 32007KT 35/11 A299 RMK A01 T03470113  RH  024%=      5-min Rain = 0
KCO2 122131Z 29006KT 35/11 A299 RMK A01 T03470110  RH  024%=      5-min Rain = 0
KCO2 122132Z 30003KT 35/11 A299 RMK A01 T03450111  RH  024%=      5-min Rain = 0
KCO2 122133Z 36006KT 35/11 A299 RMK A01 T03450111  RH  024%=      5-min Rain = 0
KCO2 122134Z 34007KT 35/11 A299 RMK A01 T03470111  RH  024%=      5-min Rain = 0
KCO2 122135Z 31004KT 35/11 A299 RMK A01 T03470110  RH  024%=      5-min Rain = 0
KCO2 122136Z 29005KT 35/11 A2989 RMK A01 T03460110  RH  024%=      5-min Rain = 0
KCO2 122137Z 34006KT 35/11 A299 RMK A01 T03460111  RH  024%=      5-min Rain = 0
KCO2 122138Z 00007KT 35/12 A299 RMK A01 T03500115  RH  024%=      5-min Rain = 0
KCO2 122139Z 00006KT 35/11 A299 RMK A01 T03510111  RH  023%=      5-min Rain = 0
KCO2 122140Z 36005KT 35/11 A299 RMK A01 T03480110  RH  024%=      5-min Rain = 0
KCO2 122141Z 01005KT 35/11 A299 RMK A01 T03470112  RH  024%=      5-min Rain = 0
KCO2 122142Z 04004KT 35/11 A2989 RMK A01 T03460114  RH  024%=      5-min Rain = 0
KCO2 122143Z 02003KT 34/11 A2989 RMK A01 T03440111  RH  024%=      5-min Rain = 0
KCO2 122144Z 01004KT 34/11 A2989 RMK A01 T03420110  RH  024%=      5-min Rain = 0
KCO2 122145Z 03002KT 34/11 A2989 RMK A01 T03420111  RH  025%=      5-min Rain = 0
KCO2 122146Z 06003KT 34/11 A2989 RMK A01 T03420111  RH  025%=      5-min Rain = 0
KCO2 122147Z 11003KT 34/11 A2989 RMK A01 T03400110  RH  025%=      5-min Rain = 0
KCO2 122148Z 11003KT 34/11 A2989 RMK A01 T03390112  RH  025%=      5-min Rain = 0
KCO2 122149Z 12001KT 34/11 A2989 RMK A01 T03420114  RH  025%=      5-min Rain = 0
KCO2 122150Z 11002KT 34/11 A2989 RMK A01 T03440113  RH  025%=      5-min Rain = 0
KCO2 122151Z 08002KT 35/11 A2989 RMK A01 T03450111  RH  024%=      5-min Rain = 0
KCO2 122152Z 04002KT 34/11 A2989 RMK A01 T03440111  RH  024%=      5-min Rain = 0
KCO2 122153Z 05006KT 34/11 A2989 RMK A01 T03420112  RH  025%=      5-min Rain = 0
KCO2 122154Z 06006KT 34/11 A2989 RMK A01 T03430113  RH  025%=      5-min Rain = 0
KCO2 122155Z 05008KT 34/12 A2989 RMK A01 T03430115  RH  025%=      5-min Rain = 0
KCO2 122156Z 04006KT 34/12 A2989 RMK A01 T03430115  RH  025%=      5-min Rain = 0
KCO2 122157Z 05006KT 34/11 A2989 RMK A01 T03430114  RH  025%=      5-min Rain = 0
KCO2 122158Z 04004KT 34/11 A2989 RMK A01 T03430113  RH  025%=      5-min Rain = 0
KCO2 122159Z 04003KT 34/11 A2989 RMK A01 T03410112  RH  025%=      5-min Rain = 0
KCO2 122200Z 07002KT 34/11 A2989 RMK A01 T03400112  RH  025%=      5-min Rain = 0
KCO2 122201Z 13001KT 34/11 A2989 RMK A01 T03390112  RH  025%=      5-min Rain = 0
KCO2 122202Z 07001KT 34/11 A2989 RMK A01 T03410113  RH  025%=      5-min Rain = 0
KCO2 122203Z 04002KT 34/11 A2989 RMK A01 T03430114  RH  025%=      5-min Rain = 0
KCO2 122204Z 04002KT 35/11 A2989 RMK A01 T03450112  RH  024%=      5-min Rain = 0
KCO2 122205Z 11000KT 34/11 A2989 RMK A01 T03440111  RH  024%=      5-min Rain = 0
KCO2 122206Z 26001KT 34/11 A2989 RMK A01 T03430111  RH  024%=      5-min Rain = 0
KCO2 122207Z 36004KT 34/11 A2989 RMK A01 T03440111  RH  024%=      5-min Rain = 0
KCO2 122208Z 35004KT 35/11 A2989 RMK A01 T03450113  RH  024%=      5-min Rain = 0
KCO2 122209Z 09001KT 35/11 A2989 RMK A01 T03450110  RH  024%=      5-min Rain = 0
KCO2 122210Z 10002KT 35/11 A2988 RMK A01 T03450110  RH  024%=      5-min Rain = 0
KCO2 122211Z 06001KT 35/11 A2988 RMK A01 T03450112  RH  024%=      5-min Rain = 0
KCO2 122212Z 08001KT 35/11 A2988 RMK A01 T03450109  RH  024%=      5-min Rain = 0
KCO2 122213Z 03003KT 35/11 A2988 RMK A01 T03460111  RH  024%=      5-min Rain = 0
KCO2 122214Z 01006KT 35/11 A2988 RMK A01 T03460113  RH  024%=      5-min Rain = 0
KCO2 122215Z 01008KT 35/11 A2988 RMK A01 T03460113  RH  024%=      5-min Rain = 0
KCO2 122216Z 00010KT 35/11 A2988 RMK A01 T03450114  RH  025%=      5-min Rain = 0
KCO2 122217Z 00007KT 35/11 A2988 RMK A01 T03450114  RH  024%=      5-min Rain = 0
KCO2 122218Z 00006KT 35/11 A2988 RMK A01 T03450114  RH  025%=      5-min Rain = 0
KCO2 122219Z 02009KT 35/12 A2988 RMK A01 T03450117  RH  025%=      5-min Rain = 0
KCO2 122220Z 03010KT 35/12 A2988 RMK A01 T03470116  RH  025%=      5-min Rain = 0
KCO2 122221Z 03010KT 35/12 A2988 RMK A01 T03480117  RH  025%=      5-min Rain = 0
KCO2 122222Z 04007KT 35/12 A2988 RMK A01 T03460118  RH  025%=      5-min Rain = 0
KCO2 122223Z 04006KT 35/12 A2988 RMK A01 T03450117  RH  025%=      5-min Rain = 0
KCO2 122224Z 35005KT 34/11 A2988 RMK A01 T03440114  RH  025%=      5-min Rain = 0
KCO2 122225Z 03003KT 34/12 A2988 RMK A01 T03420115  RH  025%=      5-min Rain = 0
KCO2 122226Z 06006KT 34/12 A2988 RMK A01 T03430118  RH  026%=      5-min Rain = 0
KCO2 122227Z 05005KT 34/11 A2988 RMK A01 T03430114  RH  025%=      5-min Rain = 0
KCO2 122228Z 07004KT 34/11 A2988 RMK A01 T03410113  RH  025%=      5-min Rain = 0
KCO2 122229Z 09004KT 34/12 A2988 RMK A01 T03400115  RH  025%=      5-min Rain = 0
KCO2 122230Z 10002KT 34/12 A2988 RMK A01 T03400116  RH  026%=      5-min Rain = 0
KCO2 122231Z 09002KT 34/11 A2988 RMK A01 T03410113  RH  025%=      5-min Rain = 0
KCO2 122232Z 06004KT 34/12 A2988 RMK A01 T03420116  RH  025%=      5-min Rain = 0
KCO2 122233Z 05003KT 34/12 A2988 RMK A01 T03420115  RH  025%=      5-min Rain = 0
KCO2 122234Z 09003KT 34/12 A2988 RMK A01 T03420115  RH  025%=      5-min Rain = 0
KCO2 122235Z 08002KT 34/12 A2988 RMK A01 T03420117  RH  026%=      5-min Rain = 0
KCO2 122236Z 04001KT 34/11 A2988 RMK A01 T03420111  RH  025%=      5-min Rain = 0
KCO2 122237Z 10001KT 34/11 A2988 RMK A01 T03420112  RH  025%=      5-min Rain = 0
KCO2 122238Z 11002KT 34/12 A2988 RMK A01 T03430115  RH  025%=      5-min Rain = 0
KCO2 122239Z 09003KT 35/12 A2988 RMK A01 T03450121  RH  026%=      5-min Rain = 0
KCO2 122240Z 05004KT 35/12 A2988 RMK A01 T03470118  RH  025%=      5-min Rain = 0
KCO2 122241Z 04002KT 35/12 A2988 RMK A01 T03470119  RH  025%=      5-min Rain = 0
KCO2 122242Z 04003KT 35/12 A2988 RMK A01 T03490116  RH  025%=      5-min Rain = 0
KCO2 122243Z 01005KT 35/12 A2988 RMK A01 T03490117  RH  025%=      5-min Rain = 0
KCO2 122244Z 01007KT 35/12 A2988 RMK A01 T03480116  RH  024%=      5-min Rain = 0
KCO2 122245Z 00006KT 35/12 A2988 RMK A01 T03470116  RH  025%=      5-min Rain = 0
KCO2 122246Z 02006KT 35/12 A2988 RMK A01 T03460116  RH  025%=      5-min Rain = 0
KCO2 122247Z 04005KT 34/11 A2988 RMK A01 T03440112  RH  024%=      5-min Rain = 0
KCO2 122248Z 03003KT 34/12 A2988 RMK A01 T03420115  RH  025%=      5-min Rain = 0
KCO2 122249Z 05002KT 34/11 A2988 RMK A01 T03420113  RH  025%=      5-min Rain = 0
KCO2 122250Z 10002KT 34/11 A2988 RMK A01 T03420114  RH  025%=      5-min Rain = 0
KCO2 122251Z 11003KT 34/12 A2988 RMK A01 T03420118  RH  026%=      5-min Rain = 0
KCO2 122252Z 11003KT 34/12 A2988 RMK A01 T03420121  RH  026%=      5-min Rain = 0
KCO2 122253Z 11002KT 34/12 A2988 RMK A01 T03430115  RH  025%=      5-min Rain = 0
KCO2 122254Z 14002KT 34/12 A2988 RMK A01 T03430115  RH  025%=      5-min Rain = 0
KCO2 122255Z 15004KT 34/11 A2987 RMK A01 T03440114  RH  025%=      5-min Rain = 0
KCO2 122256Z 15003KT 34/11 A2987 RMK A01 T03440114  RH  025%=      5-min Rain = 0
KCO2 122257Z 16005KT 35/11 A2987 RMK A01 T03450114  RH  025%=      5-min Rain = 0
KCO2 122258Z 19005KT 35/12 A2987 RMK A01 T03460116  RH  025%=      5-min Rain = 0
KCO2 122259Z 18004KT 35/12 A2987 RMK A01 T03470115  RH  025%=      5-min Rain = 0
KCO2 122300Z 17007KT 35/12 A2987 RMK A01 T03470117  RH  025%=      5-min Rain = 0
KCO2 122301Z 18007KT 35/12 A2987 RMK A01 T03470115  RH  024%=      5-min Rain = 0
KCO2 122302Z 18005KT 35/11 A2987 RMK A01 T03460114  RH  025%=      5-min Rain = 0
KCO2 122303Z 17005KT 34/11 A2987 RMK A01 T03440113  RH  025%=      5-min Rain = 0
KCO2 122304Z 15006KT 34/12 A2987 RMK A01 T03430115  RH  025%=      5-min Rain = 0
KCO2 122305Z 16006KT 34/11 A2987 RMK A01 T03430114  RH  025%=      5-min Rain = 0
KCO2 122306Z 15006KT 34/11 A2987 RMK A01 T03420114  RH  025%=      5-min Rain = 0
KCO2 122307Z 16006KT 34/12 A2987 RMK A01 T03430116  RH  025%=      5-min Rain = 0
KCO2 122308Z 14006KT 34/12 A2987 RMK A01 T03440115  RH  025%=      5-min Rain = 0
KCO2 122309Z 14006KT 34/11 A2987 RMK A01 T03440114  RH  025%=      5-min Rain = 0
KCO2 122310Z 13005KT 34/12 A2987 RMK A01 T03430115  RH  025%=      5-min Rain = 0
KCO2 122311Z 15006KT 34/12 A2987 RMK A01 T03430116  RH  025%=      5-min Rain = 0
KCO2 122312Z 12006KT 34/12 A2987 RMK A01 T03420117  RH  026%=      5-min Rain = 0
KCO2 122313Z 12004KT 34/12 A2987 RMK A01 T03420117  RH  025%=      5-min Rain = 0
KCO2 122314Z 12006KT 34/12 A2987 RMK A01 T03420119  RH  026%=      5-min Rain = 0
KCO2 122315Z 12007KT 34/12 A2987 RMK A01 T03410121  RH  026%=      5-min Rain = 0
KCO2 122316Z 12009KT 34/12 A2987 RMK A01 T03400120  RH  026%=      5-min Rain = 0
KCO2 122317Z 11007KT 34/12 A2987 RMK A01 T03400120  RH  026%=      5-min Rain = 0
KCO2 122318Z 10004KT 34/12 A2987 RMK A01 T03390124  RH  027%=      5-min Rain = 0
KCO2 122319Z 10005KT 34/12 A2987 RMK A01 T03390124  RH  027%=      5-min Rain = 0
KCO2 122320Z 11007KT 34/12 A2987 RMK A01 T03380124  RH  027%=      5-min Rain = 0
KCO2 122321Z 10007KT 34/12 A2987 RMK A01 T03380122  RH  027%=      5-min Rain = 0
KCO2 122322Z 10007KT 34/12 A2987 RMK A01 T03370121  RH  027%=      5-min Rain = 0
KCO2 122323Z 12009KT 34/12 A2987 RMK A01 T03360122  RH  027%=      5-min Rain = 0
KCO2 122324Z 10008KT 34/12 A2987 RMK A01 T03360124  RH  028%=      5-min Rain = 0
KCO2 122325Z 11008KT 34/12 A2987 RMK A01 T03360124  RH  028%=      5-min Rain = 0
KCO2 122326Z 11009KT 34/12 A2987 RMK A01 T03350123  RH  028%=      5-min Rain = 0
KCO2 122327Z 13007KT 33/12 A2987 RMK A01 T03340122  RH  028%=      5-min Rain = 0
KCO2 122328Z 13007KT 33/12 A2987 RMK A01 T03340123  RH  028%=      5-min Rain = 0
KCO2 122329Z 12007KT 34/12 A2987 RMK A01 T03350122  RH  028%=      5-min Rain = 0
KCO2 122330Z 13006KT 34/12 A2987 RMK A01 T03350123  RH  028%=      5-min Rain = 0
KCO2 122331Z 13007KT 34/12 A2987 RMK A01 T03350124  RH  028%=      5-min Rain = 0
KCO2 122332Z 13007KT 34/12 A2987 RMK A01 T03350122  RH  027%=      5-min Rain = 0
KCO2 122333Z 14008KT 34/12 A2987 RMK A01 T03350120  RH  027%=      5-min Rain = 0
KCO2 122334Z 14007KT 34/12 A2987 RMK A01 T03350119  RH  027%=      5-min Rain = 0
KCO2 122335Z 14008KT 33/12 A2987 RMK A01 T03340119  RH  027%=      5-min Rain = 0
KCO2 122336Z 14008KT 33/12 A2987 RMK A01 T03340118  RH  027%=      5-min Rain = 0
KCO2 122337Z 14007KT 33/12 A2987 RMK A01 T03330117  RH  027%=      5-min Rain = 0
KCO2 122338Z 14006KT 33/12 A2987 RMK A01 T03330117  RH  027%=      5-min Rain = 0
KCO2 122339Z 13005KT 33/12 A2987 RMK A01 T03320119  RH  027%=      5-min Rain = 0
KCO2 122340Z 13007KT 33/12 A2987 RMK A01 T03320120  RH  028%=      5-min Rain = 0
KCO2 122341Z 13007KT 33/12 A2987 RMK A01 T03320120  RH  028%=      5-min Rain = 0
KCO2 122342Z 12007KT 33/12 A2987 RMK A01 T03320122  RH  028%=      5-min Rain = 0
KCO2 122343Z 12005KT 33/13 A2987 RMK A01 T03320125  RH  028%=      5-min Rain = 0
KCO2 122344Z 12006KT 33/13 A2987 RMK A01 T03310125  RH  029%=      5-min Rain = 0
KCO2 122345Z 13006KT 33/12 A2987 RMK A01 T03300124  RH  029%=      5-min Rain = 0
KCO2 122346Z 12006KT 33/13 A2987 RMK A01 T03300125  RH  029%=      5-min Rain = 0
KCO2 122347Z 12005KT 33/12 A2987 RMK A01 T03300123  RH  028%=      5-min Rain = 0
KCO2 122348Z 12005KT 33/12 A2987 RMK A01 T03290123  RH  029%=      5-min Rain = 0
KCO2 122349Z 11006KT 33/12 A2987 RMK A01 T03290123  RH  029%=      5-min Rain = 0
KCO2 122350Z 10007KT 33/12 A2987 RMK A01 T03280122  RH  029%=      5-min Rain = 0
KCO2 122351Z 12005KT 33/12 A2987 RMK A01 T03270121  RH  028%=      5-min Rain = 0
KCO2 122352Z 12004KT 33/12 A2987 RMK A01 T03270120  RH  028%=      5-min Rain = 0
KCO2 122353Z 12004KT 33/12 A2987 RMK A01 T03270120  RH  028%=      5-min Rain = 0
KCO2 122354Z 12004KT 33/12 A2987 RMK A01 T03260124  RH  029%=      5-min Rain = 0
KCO2 122355Z 12006KT 33/12 A2987 RMK A01 T03260123  RH  029%=      5-min Rain = 0
KCO2 122356Z 12006KT 33/12 A2987 RMK A01 T03260122  RH  029%=      5-min Rain = 0
KCO2 122357Z 12006KT 33/12 A2987 RMK A01 T03250122  RH  029%=      5-min Rain = 0
KCO2 122358Z 12006KT 33/12 A2987 RMK A01 T03250123  RH  029%=      5-min Rain = 0
KCO2 122359Z 11006KT 32/12 A2987 RMK A01 T03240121  RH  029%=      5-min Rain = 0
KCO2 130000Z 11006KT 32/12 A2987 RMK A01 T03240121  RH  029%=      5-min Rain = 0
KCO2 130001Z 12006KT 32/12 A2987 RMK A01 T03230121  RH  029%=      5-min Rain = 0
KCO2 130002Z 13005KT 32/12 A2987 RMK A01 T03230123  RH  029%=      5-min Rain = 0
KCO2 130003Z 13006KT 32/12 A2986 RMK A01 T03230122  RH  029%=      5-min Rain = 0
KCO2 130004Z 13006KT 32/12 A2986 RMK A01 T03220122  RH  030%=      5-min Rain = 0
KCO2 130005Z 12006KT 32/12 A2986 RMK A01 T03220120  RH  029%=      5-min Rain = 0
KCO2 130006Z 11005KT 32/12 A2986 RMK A01 T03220122  RH  030%=      5-min Rain = 0
KCO2 130007Z 10005KT 32/13 A2986 RMK A01 T03210126  RH  031%=      5-min Rain = 0
KCO2 130008Z 11005KT 32/13 A2986 RMK A01 T03200128  RH  031%=      5-min Rain = 0
KCO2 130009Z 11005KT 32/13 A2986 RMK A01 T03180128  RH  031%=      5-min Rain = 0
KCO2 130010Z 11006KT 32/13 A2986 RMK A01 T03180128  RH  031%=      5-min Rain = 0
KCO2 130011Z 10006KT 32/13 A2986 RMK A01 T03170125  RH  031%=      5-min Rain = 0
KCO2 130012Z 10005KT 32/13 A2986 RMK A01 T03160125  RH  031%=      5-min Rain = 0
KCO2 130013Z 11006KT 32/13 A2986 RMK A01 T03160125  RH  031%=      5-min Rain = 0
KCO2 130014Z 11006KT 32/13 A2986 RMK A01 T03150125  RH  031%=      5-min Rain = 0
KCO2 130015Z 11006KT 32/13 A2986 RMK A01 T03150126  RH  032%=      5-min Rain = 0
KCO2 130016Z 10006KT 31/13 A2986 RMK A01 T03140127  RH  032%=      5-min Rain = 0
KCO2 130017Z 09006KT 31/13 A2986 RMK A01 T03130128  RH  032%=      5-min Rain = 0
KCO2 130018Z 08006KT 31/13 A2986 RMK A01 T03130127  RH  032%=      5-min Rain = 0
KCO2 130019Z 08007KT 31/13 A2986 RMK A01 T03120129  RH  033%=      5-min Rain = 0
KCO2 130020Z 09009KT 31/13 A2986 RMK A01 T03120129  RH  033%=      5-min Rain = 0
KCO2 130021Z 08009KT 31/13 A2986 RMK A01 T03110128  RH  033%=      5-min Rain = 0
KCO2 130022Z 08008KT 31/13 A2986 RMK A01 T03110126  RH  032%=      5-min Rain = 0
KCO2 130023Z 08008KT 31/13 A2986 RMK A01 T03100126  RH  032%=      5-min Rain = 0
KCO2 130024Z 08007KT 31/13 A2986 RMK A01 T03100127  RH  033%=      5-min Rain = 0
KCO2 130025Z 08008KT 31/13 A2986 RMK A01 T03100127  RH  033%=      5-min Rain = 0
KCO2 130026Z 08007KT 31/13 A2986 RMK A01 T03090128  RH  033%=      5-min Rain = 0
KCO2 130027Z 08008KT 31/13 A2986 RMK A01 T03080127  RH  033%=      5-min Rain = 0
KCO2 130028Z 08009KT 31/13 A2986 RMK A01 T03070127  RH  033%=      5-min Rain = 0
KCO2 130029Z 08008KT 31/13 A2986 RMK A01 T03060127  RH  033%=      5-min Rain = 0
KCO2 130030Z 08009KT 31/13 A2986 RMK A01 T03050127  RH  033%=      5-min Rain = 0
KCO2 130031Z 08008KT 31/13 A2986 RMK A01 T03050127  RH  034%=      5-min Rain = 0
KCO2 130032Z 08008KT 30/13 A2986 RMK A01 T03040127  RH  034%=      5-min Rain = 0
KCO2 130033Z 08008KT 30/13 A2986 RMK A01 T03030127  RH  034%=      5-min Rain = 0
KCO2 130034Z 09008KT 30/13 A2986 RMK A01 T03020127  RH  034%=      5-min Rain = 0
KCO2 130035Z 09008KT 30/13 A2986 RMK A01 T03020127  RH  034%=      5-min Rain = 0
KCO2 130036Z 09008KT 30/13 A2986 RMK A01 T03010127  RH  034%=      5-min Rain = 0
KCO2 130037Z 09008KT 30/13 A2986 RMK A01 T03000127  RH  034%=      5-min Rain = 0
KCO2 130038Z 09007KT 30/13 A2986 RMK A01 T03000126  RH  035%=      5-min Rain = 0
KCO2 130039Z 09008KT 30/13 A2986 RMK A01 T02990126  RH  035%=      5-min Rain = 0
KCO2 130040Z 09008KT 30/13 A2986 RMK A01 T02980126  RH  035%=      5-min Rain = 0
KCO2 130041Z 09008KT 30/13 A2986 RMK A01 T02980126  RH  035%=      5-min Rain = 0
KCO2 130042Z 09008KT 30/13 A2986 RMK A01 T02970126  RH  035%=      5-min Rain = 0
KCO2 130043Z 09007KT 30/13 A2986 RMK A01 T02960126  RH  035%=      5-min Rain = 0
KCO2 130044Z 09006KT 30/13 A2986 RMK A01 T02950126  RH  035%=      5-min Rain = 0
KCO2 130045Z 10007KT 29/13 A2986 RMK A01 T02940126  RH  035%=      5-min Rain = 0
KCO2 130046Z 10007KT 29/13 A2986 RMK A01 T02940126  RH  036%=      5-min Rain = 0
KCO2 130047Z 10007KT 29/13 A2986 RMK A01 T02920126  RH  036%=      5-min Rain = 0
KCO2 130048Z 11007KT 29/13 A2986 RMK A01 T02910126  RH  036%=      5-min Rain = 0
KCO2 130049Z 11007KT 29/13 A2986 RMK A01 T02890126  RH  036%=      5-min Rain = 0
KCO2 130050Z 11006KT 29/13 A2986 RMK A01 T02880125  RH  037%=      5-min Rain = 0
KCO2 130051Z 11006KT 29/13 A2986 RMK A01 T02860126  RH  037%=      5-min Rain = 0
KCO2 130052Z 11007KT 29/13 A2986 RMK A01 T02850125  RH  037%=      5-min Rain = 0
KCO2 130053Z 11007KT 28/13 A2986 RMK A01 T02840126  RH  038%=      5-min Rain = 0
KCO2 130054Z 11007KT 28/13 A2986 RMK A01 T02820126  RH  038%=      5-min Rain = 0
KCO2 130055Z 11007KT 28/13 A2986 RMK A01 T02810126  RH  038%=      5-min Rain = 0
KCO2 130056Z 11006KT 28/13 A2986 RMK A01 T02800126  RH  038%=      5-min Rain = 0
KCO2 130057Z 11006KT 28/13 A2986 RMK A01 T02800126  RH  039%=      5-min Rain = 0
KCO2 130058Z 11007KT 28/13 A2986 RMK A01 T02780126  RH  039%=      5-min Rain = 0
KCO2 130059Z 11006KT 28/13 A2986 RMK A01 T02780126  RH  039%=      5-min Rain = 0
KCO2 130100Z 11007KT 28/13 A2986 RMK A01 T02770127  RH  039%=      5-min Rain = 0
KCO2 130101Z 11007KT 28/13 A2986 RMK A01 T02750126  RH  040%=      5-min Rain = 0
KCO2 130102Z 11007KT 27/13 A2986 RMK A01 T02740126  RH  040%=      5-min Rain = 0
KCO2 130103Z 11007KT 27/13 A2986 RMK A01 T02730126  RH  040%=      5-min Rain = 0
KCO2 130104Z 11007KT 27/13 A2986 RMK A01 T02720127  RH  041%=      5-min Rain = 0
KCO2 130105Z 11008KT 27/13 A2986 RMK A01 T02710127  RH  041%=      5-min Rain = 0
KCO2 130106Z 11008KT 27/13 A2986 RMK A01 T02700127  RH  041%=      5-min Rain = 0
KCO2 130107Z 11008KT 27/13 A2986 RMK A01 T02690127  RH  041%=      5-min Rain = 0
KCO2 130108Z 11007KT 27/13 A2986 RMK A01 T02690127  RH  041%=      5-min Rain = 0
KCO2 130109Z 10008KT 27/13 A2986 RMK A01 T02690127  RH  041%=      5-min Rain = 0
KCO2 130110Z 10007KT 27/13 A2986 RMK A01 T02680127  RH  041%=      5-min Rain = 0
KCO2 130111Z 10008KT 27/13 A2986 RMK A01 T02680127  RH  041%=      5-min Rain = 0
KCO2 130112Z 10008KT 27/13 A2986 RMK A01 T02680126  RH  041%=      5-min Rain = 0
KCO2 130113Z 10007KT 27/13 A2987 RMK A01 T02680125  RH  041%=      5-min Rain = 0
KCO2 130114Z 10007KT 27/13 A2987 RMK A01 T02690125  RH  041%=      5-min Rain = 0
KCO2 130115Z 09007KT 27/12 A2987 RMK A01 T02700124  RH  041%=      5-min Rain = 0
KCO2 130116Z 10006KT 27/12 A2987 RMK A01 T02700124  RH  040%=      5-min Rain = 0
KCO2 130117Z 10006KT 27/12 A2987 RMK A01 T02700124  RH  040%=      5-min Rain = 0
KCO2 130118Z 10006KT 27/13 A2987 RMK A01 T02700125  RH  040%=      5-min Rain = 0
KCO2 130119Z 10006KT 27/13 A2987 RMK A01 T02700125  RH  041%=      5-min Rain = 0
KCO2 130120Z 10006KT 27/13 A2987 RMK A01 T02690125  RH  041%=      5-min Rain = 0
KCO2 130121Z 10006KT 27/13 A2987 RMK A01 T02680125  RH  041%=      5-min Rain = 0
KCO2 130122Z 10006KT 27/13 A2987 RMK A01 T02670125  RH  041%=      5-min Rain = 0
KCO2 130123Z 10006KT 27/13 A2987 RMK A01 T02660125  RH  042%=      5-min Rain = 0
KCO2 130124Z 10006KT 27/13 A2987 RMK A01 T02650125  RH  042%=      5-min Rain = 0
KCO2 130125Z 10006KT 26/13 A2987 RMK A01 T02640125  RH  042%=      5-min Rain = 0
KCO2 130126Z 10006KT 26/13 A2987 RMK A01 T02630125  RH  043%=      5-min Rain = 0
KCO2 130127Z 10006KT 26/13 A2987 RMK A01 T02610125  RH  043%=      5-min Rain = 0
KCO2 130128Z 09006KT 26/13 A2987 RMK A01 T02610125  RH  043%=      5-min Rain = 0
KCO2 130129Z 10006KT 26/13 A2987 RMK A01 T02610125  RH  043%=      5-min Rain = 0
KCO2 130130Z 09006KT 26/13 A2987 RMK A01 T02610125  RH  043%=      5-min Rain = 0
KCO2 130131Z 09006KT 26/13 A2987 RMK A01 T02610126  RH  043%=      5-min Rain = 0
KCO2 130132Z 10006KT 26/13 A2987 RMK A01 T02610126  RH  043%=      5-min Rain = 0
KCO2 130133Z 10006KT 26/13 A2987 RMK A01 T02610126  RH  043%=      5-min Rain = 0
KCO2 130134Z 09006KT 26/13 A2987 RMK A01 T02600126  RH  043%=      5-min Rain = 0
KCO2 130135Z 10007KT 26/13 A2987 RMK A01 T02600125  RH  043%=      5-min Rain = 0
KCO2 130136Z 10007KT 26/12 A2987 RMK A01 T02600124  RH  043%=      5-min Rain = 0
KCO2 130137Z 10007KT 26/12 A2987 RMK A01 T02610124  RH  043%=      5-min Rain = 0
KCO2 130138Z 09007KT 26/12 A2987 RMK A01 T02610124  RH  043%=      5-min Rain = 0
KCO2 130139Z 09007KT 26/13 A2987 RMK A01 T02610125  RH  043%=      5-min Rain = 0
KCO2 130140Z 09007KT 26/13 A2987 RMK A01 T02600125  RH  043%=      5-min Rain = 0
KCO2 130141Z 09007KT 26/13 A2987 RMK A01 T02590125  RH  044%=      5-min Rain = 0
KCO2 130142Z 08007KT 26/13 A2987 RMK A01 T02570125  RH  044%=      5-min Rain = 0
KCO2 130143Z 08007KT 26/13 A2987 RMK A01 T02560125  RH  044%=      5-min Rain = 0
KCO2 130144Z 08007KT 26/13 A2987 RMK A01 T02550125  RH  044%=      5-min Rain = 0
KCO2 130145Z 08007KT 26/13 A2987 RMK A01 T02550125  RH  044%=      5-min Rain = 0
KCO2 130146Z 08007KT 25/13 A2987 RMK A01 T02540125  RH  044%=      5-min Rain = 0
KCO2 130147Z 08006KT 25/13 A2987 RMK A01 T02540125  RH  045%=      5-min Rain = 0
KCO2 130148Z 08006KT 25/13 A2987 RMK A01 T02530125  RH  045%=      5-min Rain = 0
KCO2 130149Z 09006KT 25/13 A2987 RMK A01 T02530125  RH  045%=      5-min Rain = 0
KCO2 130150Z 09006KT 25/13 A2987 RMK A01 T02520125  RH  045%=      5-min Rain = 0
KCO2 130151Z 09006KT 25/13 A2987 RMK A01 T02520125  RH  045%=      5-min Rain = 0
KCO2 130152Z 09006KT 25/13 A2987 RMK A01 T02520125  RH  045%=      5-min Rain = 0
KCO2 130153Z 09006KT 25/13 A2987 RMK A01 T02530125  RH  045%=      5-min Rain = 0
KCO2 130154Z 09006KT 25/13 A2987 RMK A01 T02520125  RH  045%=      5-min Rain = 0
KCO2 130155Z 09006KT 25/13 A2987 RMK A01 T02520125  RH  045%=      5-min Rain = 0
KCO2 130156Z 09006KT 25/13 A2987 RMK A01 T02510125  RH  046%=      5-min Rain = 0
KCO2 130157Z 09006KT 25/13 A2987 RMK A01 T02510126  RH  046%=      5-min Rain = 0
KCO2 130158Z 10006KT 25/13 A2987 RMK A01 T02510126  RH  046%=      5-min Rain = 0
KCO2 130159Z 09006KT 25/13 A2987 RMK A01 T02500125  RH  046%=      5-min Rain = 0
KCO2 130200Z 09006KT 25/13 A2988 RMK A01 T02520125  RH  045%=      5-min Rain = 0
KCO2 130201Z 10006KT 25/12 A2988 RMK A01 T02520124  RH  045%=      5-min Rain = 0
KCO2 130202Z 10007KT 25/13 A2988 RMK A01 T02530125  RH  045%=      5-min Rain = 0
KCO2 130203Z 10006KT 25/12 A2988 RMK A01 T02530124  RH  045%=      5-min Rain = 0
KCO2 130204Z 10007KT 25/13 A2988 RMK A01 T02530125  RH  045%=      5-min Rain = 0
KCO2 130205Z 10007KT 25/13 A2988 RMK A01 T02520125  RH  045%=      5-min Rain = 0
KCO2 130206Z 11007KT 25/13 A2988 RMK A01 T02510125  RH  045%=      5-min Rain = 0
KCO2 130207Z 11006KT 25/13 A2988 RMK A01 T02490125  RH  046%=      5-min Rain = 0
KCO2 130208Z 14004KT 25/13 A2988 RMK A01 T02470125  RH  046%=      5-min Rain = 0
KCO2 130209Z 13005KT 24/13 A2988 RMK A01 T02440125  RH  047%=      5-min Rain = 0
KCO2 130210Z 11006KT 24/12 A2988 RMK A01 T02420124  RH  047%=      5-min Rain = 0
KCO2 130211Z 11006KT 24/12 A2988 RMK A01 T02430123  RH  047%=      5-min Rain = 0
KCO2 130212Z 12005KT 24/12 A2988 RMK A01 T02430123  RH  047%=      5-min Rain = 0
KCO2 130213Z 13005KT 24/13 A2988 RMK A01 T02430125  RH  047%=      5-min Rain = 0
KCO2 130214Z 12006KT 24/13 A2988 RMK A01 T02410125  RH  048%=      5-min Rain = 0
KCO2 130215Z 12005KT 24/13 A2988 RMK A01 T02410125  RH  048%=      5-min Rain = 0
KCO2 130216Z 12006KT 24/12 A2988 RMK A01 T02400124  RH  048%=      5-min Rain = 0
KCO2 130217Z 11006KT 24/12 A2988 RMK A01 T02400124  RH  048%=      5-min Rain = 0
KCO2 130218Z 11005KT 24/12 A2988 RMK A01 T02410124  RH  048%=      5-min Rain = 0
KCO2 130219Z 11005KT 24/12 A2988 RMK A01 T02420124  RH  048%=      5-min Rain = 0
KCO2 130220Z 11005KT 24/12 A2988 RMK A01 T02420124  RH  048%=      5-min Rain = 0
KCO2 130221Z 11005KT 24/12 A2988 RMK A01 T02420124  RH  048%=      5-min Rain = 0
KCO2 130222Z 11005KT 24/12 A2988 RMK A01 T02430124  RH  047%=      5-min Rain = 0
KCO2 130223Z 10005KT 24/12 A2988 RMK A01 T02430124  RH  047%=      5-min Rain = 0
KCO2 130224Z 10005KT 24/12 A2988 RMK A01 T02430124  RH  047%=      5-min Rain = 0
KCO2 130225Z 10005KT 24/12 A2988 RMK A01 T02430124  RH  047%=      5-min Rain = 0
KCO2 130226Z 10005KT 24/13 A2988 RMK A01 T02430125  RH  048%=      5-min Rain = 0
KCO2 130227Z 10005KT 24/13 A2989 RMK A01 T02420125  RH  048%=      5-min Rain = 0
KCO2 130228Z 09006KT 24/13 A2989 RMK A01 T02420125  RH  048%=      5-min Rain = 0
KCO2 130229Z 09006KT 24/13 A2989 RMK A01 T02410125  RH  048%=      5-min Rain = 0
KCO2 130230Z 09006KT 24/13 A2989 RMK A01 T02410125  RH  048%=      5-min Rain = 0
KCO2 130231Z 09006KT 24/13 A2989 RMK A01 T02410125  RH  048%=      5-min Rain = 0
KCO2 130232Z 09005KT 24/13 A2989 RMK A01 T02410125  RH  048%=      5-min Rain = 0
KCO2 130233Z 09005KT 24/13 A2989 RMK A01 T02400125  RH  049%=      5-min Rain = 0
KCO2 130234Z 09005KT 24/13 A2989 RMK A01 T02390125  RH  049%=      5-min Rain = 0
KCO2 130235Z 09005KT 24/13 A2989 RMK A01 T02380125  RH  049%=      5-min Rain = 0
KCO2 130236Z 09005KT 24/13 A2989 RMK A01 T02370125  RH  049%=      5-min Rain = 0
KCO2 130237Z 09004KT 24/13 A2989 RMK A01 T02370125  RH  050%=      5-min Rain = 0
KCO2 130238Z 09004KT 24/13 A2989 RMK A01 T02350125  RH  050%=      5-min Rain = 0
KCO2 130239Z 09004KT 23/13 A2989 RMK A01 T02340125  RH  050%=      5-min Rain = 0
KCO2 130240Z 09005KT 23/13 A2989 RMK A01 T02330125  RH  051%=      5-min Rain = 0
KCO2 130241Z 09005KT 23/13 A2989 RMK A01 T02310125  RH  051%=      5-min Rain = 0
KCO2 130242Z 09005KT 23/12 A2989 RMK A01 T02300124  RH  051%=      5-min Rain = 0
KCO2 130243Z 09005KT 23/12 A2989 RMK A01 T02290124  RH  052%=      5-min Rain = 0
KCO2 130244Z 09005KT 23/13 A2989 RMK A01 T02280125  RH  052%=      5-min Rain = 0
KCO2 130245Z 09005KT 23/12 A2989 RMK A01 T02270124  RH  052%=      5-min Rain = 0
KCO2 130246Z 10005KT 23/13 A2989 RMK A01 T02270125  RH  052%=      5-min Rain = 0
KCO2 130247Z 10005KT 23/12 A2989 RMK A01 T02260124  RH  053%=      5-min Rain = 0
KCO2 130248Z 10005KT 22/12 A2989 RMK A01 T02230124  RH  053%=      5-min Rain = 0
KCO2 130249Z 10006KT 22/12 A2989 RMK A01 T02210124  RH  054%=      5-min Rain = 0
KCO2 130250Z 10005KT 22/12 A2989 RMK A01 T02200124  RH  054%=      5-min Rain = 0
KCO2 130251Z 10005KT 22/12 A2989 RMK A01 T02200124  RH  054%=      5-min Rain = 0
KCO2 130252Z 09006KT 22/12 A2989 RMK A01 T02200124  RH  054%=      5-min Rain = 0
KCO2 130253Z 09006KT 22/12 A2989 RMK A01 T02210124  RH  054%=      5-min Rain = 0
KCO2 130254Z 09006KT 22/13 A2989 RMK A01 T02220125  RH  054%=      5-min Rain = 0
KCO2 130255Z 09006KT 22/12 A2989 RMK A01 T02230124  RH  053%=      5-min Rain = 0
KCO2 130256Z 09006KT 23/13 A2989 RMK A01 T02250125  RH  053%=      5-min Rain = 0
KCO2 130257Z 09006KT 23/13 A2989 RMK A01 T02270125  RH  052%=      5-min Rain = 0
KCO2 130258Z 09006KT 23/13 A2989 RMK A01 T02280125  RH  052%=      5-min Rain = 0
KCO2 130259Z 09006KT 23/12 A2989 RMK A01 T02280124  RH  052%=      5-min Rain = 0
KCO2 130300Z 09006KT 23/12 A2989 RMK A01 T02290124  RH  052%=      5-min Rain = 0
KCO2 130301Z 09006KT 23/12 A2989 RMK A01 T02290124  RH  051%=      5-min Rain = 0
KCO2 130302Z 09005KT 23/12 A2989 RMK A01 T02300124  RH  051%=      5-min Rain = 0
KCO2 130303Z 09005KT 23/12 A2989 RMK A01 T02300123  RH  051%=      5-min Rain = 0
KCO2 130304Z 09006KT 23/12 A2989 RMK A01 T02300123  RH  051%=      5-min Rain = 0
KCO2 130305Z 09006KT 23/12 A2989 RMK A01 T02290123  RH  051%=      5-min Rain = 0
KCO2 130306Z 09007KT 23/12 A2989 RMK A01 T02300124  RH  051%=      5-min Rain = 0
KCO2 130307Z 09007KT 23/12 A2989 RMK A01 T02300123  RH  051%=      5-min Rain = 0
KCO2 130308Z 09007KT 23/12 A2989 RMK A01 T02300123  RH  051%=      5-min Rain = 0
KCO2 130309Z 09007KT 23/12 A2989 RMK A01 T02310123  RH  050%=      5-min Rain = 0
KCO2 130310Z 09007KT 23/12 A2989 RMK A01 T02310122  RH  050%=      5-min Rain = 0
KCO2 130311Z 09007KT 23/12 A2989 RMK A01 T02320122  RH  050%=      5-min Rain = 0
KCO2 130312Z 09007KT 23/12 A2989 RMK A01 T02320123  RH  050%=      5-min Rain = 0
KCO2 130313Z 09007KT 23/12 A2989 RMK A01 T02320123  RH  050%=      5-min Rain = 0
KCO2 130314Z 09007KT 23/12 A2989 RMK A01 T02310122  RH  050%=      5-min Rain = 0
KCO2 130315Z 09007KT 23/12 A299 RMK A01 T02300122  RH  050%=      5-min Rain = 0
KCO2 130316Z 09007KT 23/12 A299 RMK A01 T02300122  RH  050%=      5-min Rain = 0
KCO2 130317Z 09007KT 23/12 A299 RMK A01 T02300123  RH  051%=      5-min Rain = 0
KCO2 130318Z 09007KT 23/12 A299 RMK A01 T02290122  RH  051%=      5-min Rain = 0
KCO2 130319Z 09007KT 23/12 A299 RMK A01 T02280122  RH  051%=      5-min Rain = 0
KCO2 130320Z 09007KT 23/12 A299 RMK A01 T02270123  RH  052%=      5-min Rain = 0
KCO2 130321Z 09007KT 23/12 A299 RMK A01 T02260122  RH  052%=      5-min Rain = 0
KCO2 130322Z 09007KT 23/12 A299 RMK A01 T02260123  RH  052%=      5-min Rain = 0
KCO2 130323Z 09007KT 23/12 A299 RMK A01 T02250123  RH  052%=      5-min Rain = 0
KCO2 130324Z 09007KT 23/12 A299 RMK A01 T02250123  RH  052%=      5-min Rain = 0
KCO2 130325Z 09007KT 23/12 A299 RMK A01 T02250123  RH  053%=      5-min Rain = 0
KCO2 130326Z 08007KT 22/12 A299 RMK A01 T02240123  RH  053%=      5-min Rain = 0
KCO2 130327Z 08007KT 22/12 A299 RMK A01 T02230123  RH  053%=      5-min Rain = 0
KCO2 130328Z 08007KT 22/12 A299 RMK A01 T02220122  RH  053%=      5-min Rain = 0
KCO2 130329Z 08007KT 22/12 A299 RMK A01 T02220123  RH  053%=      5-min Rain = 0
KCO2 130330Z 08008KT 22/12 A299 RMK A01 T02210122  RH  053%=      5-min Rain = 0
KCO2 130331Z 08008KT 22/12 A299 RMK A01 T02210122  RH  053%=      5-min Rain = 0
KCO2 130332Z 08008KT 22/12 A299 RMK A01 T02210122  RH  053%=      5-min Rain = 0
KCO2 130333Z 08008KT 22/12 A299 RMK A01 T02200121  RH  053%=      5-min Rain = 0
KCO2 130334Z 08008KT 22/12 A299 RMK A01 T02200121  RH  053%=      5-min Rain = 0
KCO2 130335Z 08007KT 22/12 A299 RMK A01 T02200121  RH  053%=      5-min Rain = 0
KCO2 130336Z 08007KT 22/12 A299 RMK A01 T02200121  RH  053%=      5-min Rain = 0
KCO2 130337Z 08008KT 22/12 A299 RMK A01 T02200121  RH  053%=      5-min Rain = 0
KCO2 130338Z 08007KT 22/12 A299 RMK A01 T02210121  RH  053%=      5-min Rain = 0
KCO2 130339Z 09008KT 22/12 A299 RMK A01 T02210120  RH  053%=      5-min Rain = 0
KCO2 130340Z 09007KT 22/12 A299 RMK A01 T02210120  RH  053%=      5-min Rain = 0
KCO2 130341Z 09007KT 22/12 A299 RMK A01 T02210120  RH  053%=      5-min Rain = 0
KCO2 130342Z 09007KT 22/12 A299 RMK A01 T02220120  RH  052%=      5-min Rain = 0
KCO2 130343Z 09007KT 22/12 A299 RMK A01 T02220120  RH  052%=      5-min Rain = 0
KCO2 130344Z 09007KT 22/12 A299 RMK A01 T02220119  RH  052%=      5-min Rain = 0
KCO2 130345Z 09006KT 22/12 A299 RMK A01 T02220119  RH  052%=      5-min Rain = 0
KCO2 130346Z 09006KT 22/12 A299 RMK A01 T02220119  RH  052%=      5-min Rain = 0
KCO2 130347Z 09006KT 22/12 A299 RMK A01 T02220119  RH  052%=      5-min Rain = 0
KCO2 130348Z 09005KT 22/12 A299 RMK A01 T02230119  RH  052%=      5-min Rain = 0
KCO2 130349Z 09005KT 22/12 A299 RMK A01 T02230119  RH  052%=      5-min Rain = 0
KCO2 130350Z 09005KT 22/12 A299 RMK A01 T02220119  RH  052%=      5-min Rain = 0
KCO2 130351Z 09005KT 22/12 A299 RMK A01 T02210119  RH  052%=      5-min Rain = 0
KCO2 130352Z 09006KT 22/12 A299 RMK A01 T02200119  RH  053%=      5-min Rain = 0
KCO2 130353Z 09006KT 22/12 A299 RMK A01 T02180118  RH  053%=      5-min Rain = 0
KCO2 130354Z 09006KT 22/12 A299 RMK A01 T02170119  RH  054%=      5-min Rain = 0
KCO2 130355Z 09006KT 22/12 A299 RMK A01 T02160119  RH  054%=      5-min Rain = 0
KCO2 130356Z 09006KT 22/12 A299 RMK A01 T02160119  RH  054%=      5-min Rain = 0
KCO2 130357Z 09006KT 22/12 A299 RMK A01 T02160118  RH  054%=      5-min Rain = 0
KCO2 130358Z 09006KT 22/12 A299 RMK A01 T02170119  RH  053%=      5-min Rain = 0
KCO2 130359Z 09005KT 22/12 A299 RMK A01 T02170118  RH  053%=      5-min Rain = 0
KCO2 130400Z 09005KT 22/12 A299 RMK A01 T02170119  RH  053%=      5-min Rain = 0
KCO2 130401Z 09006KT 22/12 A299 RMK A01 T02170119  RH  054%=      5-min Rain = 0
KCO2 130402Z 09006KT 22/12 A2989 RMK A01 T02170119  RH  054%=      5-min Rain = 0
KCO2 130403Z 09006KT 22/12 A2989 RMK A01 T02170119  RH  054%=      5-min Rain = 0
KCO2 130404Z 09006KT 22/12 A2989 RMK A01 T02160118  RH  054%=      5-min Rain = 0
KCO2 130405Z 09006KT 22/12 A2989 RMK A01 T02170118  RH  053%=      5-min Rain = 0
KCO2 130406Z 08006KT 22/12 A299 RMK A01 T02170118  RH  053%=      5-min Rain = 0
KCO2 130407Z 09006KT 22/12 A299 RMK A01 T02170117  RH  053%=      5-min Rain = 0
KCO2 130408Z 08006KT 22/12 A299 RMK A01 T02170117  RH  053%=      5-min Rain = 0
KCO2 130409Z 08006KT 22/12 A299 RMK A01 T02170117  RH  053%=      5-min Rain = 0
KCO2 130410Z 08006KT 22/12 A299 RMK A01 T02170117  RH  053%=      5-min Rain = 0
KCO2 130411Z 09006KT 22/12 A299 RMK A01 T02170116  RH  053%=      5-min Rain = 0
KCO2 130412Z 09006KT 22/12 A299 RMK A01 T02170116  RH  053%=      5-min Rain = 0
KCO2 130413Z 09006KT 22/12 A299 RMK A01 T02170116  RH  053%=      5-min Rain = 0
KCO2 130414Z 09006KT 22/12 A299 RMK A01 T02170117  RH  053%=      5-min Rain = 0
KCO2 130415Z 09006KT 22/12 A299 RMK A01 T02160116  RH  053%=      5-min Rain = 0
KCO2 130416Z 09006KT 22/12 A299 RMK A01 T02160117  RH  053%=      5-min Rain = 0
KCO2 130417Z 09006KT 22/12 A299 RMK A01 T02160116  RH  053%=      5-min Rain = 0
KCO2 130418Z 09006KT 22/12 A299 RMK A01 T02170116  RH  053%=      5-min Rain = 0
KCO2 130419Z 09006KT 22/12 A299 RMK A01 T02160116  RH  053%=      5-min Rain = 0
KCO2 130420Z 09006KT 22/12 A299 RMK A01 T02160116  RH  053%=      5-min Rain = 0
KCO2 130421Z 09006KT 22/12 A299 RMK A01 T02150116  RH  053%=      5-min Rain = 0
KCO2 130422Z 09006KT 21/12 A299 RMK A01 T02140115  RH  053%=      5-min Rain = 0
KCO2 130423Z 08006KT 21/11 A299 RMK A01 T02130114  RH  053%=      5-min Rain = 0
KCO2 130424Z 08006KT 21/11 A299 RMK A01 T02140114  RH  053%=      5-min Rain = 0
KCO2 130425Z 08006KT 21/11 A299 RMK A01 T02140114  RH  053%=      5-min Rain = 0
KCO2 130426Z 08006KT 21/11 A299 RMK A01 T02140113  RH  052%=      5-min Rain = 0
KCO2 130427Z 09006KT 21/11 A299 RMK A01 T02140113  RH  052%=      5-min Rain = 0
KCO2 130428Z 09006KT 21/11 A299 RMK A01 T02140113  RH  052%=      5-min Rain = 0
KCO2 130429Z 09006KT 21/11 A299 RMK A01 T02140113  RH  053%=      5-min Rain = 0
KCO2 130430Z 09006KT 21/11 A299 RMK A01 T02140113  RH  052%=      5-min Rain = 0
KCO2 130431Z 09005KT 21/11 A299 RMK A01 T02140113  RH  052%=      5-min Rain = 0
KCO2 130432Z 09005KT 21/11 A299 RMK A01 T02140113  RH  052%=      5-min Rain = 0
KCO2 130433Z 09005KT 21/11 A299 RMK A01 T02140113  RH  053%=      5-min Rain = 0
KCO2 130434Z 09005KT 21/11 A299 RMK A01 T02140113  RH  053%=      5-min Rain = 0
KCO2 130435Z 10005KT 21/11 A299 RMK A01 T02130113  RH  053%=      5-min Rain = 0
KCO2 130436Z 10004KT 21/11 A299 RMK A01 T02130112  RH  053%=      5-min Rain = 0
KCO2 130437Z 10004KT 21/11 A299 RMK A01 T02130112  RH  052%=      5-min Rain = 0
KCO2 130438Z 11004KT 21/11 A299 RMK A01 T02130113  RH  053%=      5-min Rain = 0
KCO2 130439Z 12003KT 21/11 A299 RMK A01 T02090113  RH  054%=      5-min Rain = 0
KCO2 130440Z 14003KT 20/11 A299 RMK A01 T02030113  RH  056%=      5-min Rain = 0
KCO2 130441Z 15003KT 20/11 A299 RMK A01 T02000113  RH  057%=      5-min Rain = 0
KCO2 130442Z 16003KT 20/11 A299 RMK A01 T01970113  RH  058%=      5-min Rain = 0
KCO2 130443Z 16003KT 20/11 A299 RMK A01 T01950113  RH  059%=      5-min Rain = 0
KCO2 130444Z 17003KT 20/11 A299 RMK A01 T01950113  RH  059%=      5-min Rain = 0
KCO2 130445Z 17003KT 19/11 A299 RMK A01 T01940113  RH  060%=      5-min Rain = 0
KCO2 130446Z 19002KT 19/11 A2991 RMK A01 T01930113  RH  060%=      5-min Rain = 0
KCO2 130447Z 20002KT 19/11 A2991 RMK A01 T01940113  RH  059%=      5-min Rain = 0
KCO2 130448Z 18002KT 20/11 A2991 RMK A01 T01950113  RH  059%=      5-min Rain = 0
KCO2 130449Z 16002KT 20/11 A2991 RMK A01 T01960113  RH  059%=      5-min Rain = 0
KCO2 130450Z 16002KT 20/11 A2991 RMK A01 T01970113  RH  059%=      5-min Rain = 0
KCO2 130451Z 16002KT 20/11 A2991 RMK A01 T01970113  RH  058%=      5-min Rain = 0
KCO2 130452Z 16002KT 20/11 A2991 RMK A01 T01970113  RH  058%=      5-min Rain = 0
KCO2 130453Z 15002KT 20/11 A2991 RMK A01 T01970113  RH  058%=      5-min Rain = 0
KCO2 130454Z 15002KT 20/11 A2991 RMK A01 T01970113  RH  058%=      5-min Rain = 0
KCO2 130455Z 14002KT 20/11 A2991 RMK A01 T01980113  RH  058%=      5-min Rain = 0
KCO2 130456Z 14002KT 20/11 A2991 RMK A01 T02000114  RH  058%=      5-min Rain = 0
KCO2 130457Z 15002KT 20/11 A2991 RMK A01 T02010114  RH  057%=      5-min Rain = 0
KCO2 130458Z 15002KT 20/11 A2991 RMK A01 T02020114  RH  057%=      5-min Rain = 0
KCO2 130459Z 15002KT 20/11 A2991 RMK A01 T02030114  RH  056%=      5-min Rain = 0

Page generated in 0.1374 seconds.